<?xml version="1.0" encoding="UTF-8" standalone="no" ?>
<gpx xmlns="http://www.topografix.com/GPX/1/1" xmlns:xsi="http://www.w3.org/2001/XMLSchema-instance" xsi:schemaLocation="http://www.topografix.com/GPX/1/1 http://www.topografix.com/GPX/1/1/gpx.xsd" version="1.1" creator="VisuGPX - https://www.visugpx.com">
  <metadata>
    <name>Crêtes de Chadenac</name>
    <desc><![CDATA[Circuit sur les crêtes entre Cornuscle et le rocher de Brion]]></desc>
  </metadata>
  <trk>
    <name><![CDATA[Crêtes de Chadenac]]></name>
    <trkseg>
      <trkpt lat="44.88518" lon="4.37658">
        <ele>644.459</ele>
        <time>2015-07-27T15:19:31Z</time>
      </trkpt>
      <trkpt lat="44.88523" lon="4.37653">
        <ele>643.23</ele>
        <time>2015-07-27T15:19:38Z</time>
      </trkpt>
      <trkpt lat="44.88529" lon="4.37659">
        <ele>643.658</ele>
        <time>2015-07-27T15:19:41Z</time>
      </trkpt>
      <trkpt lat="44.88579" lon="4.37688">
        <ele>639.431</ele>
        <time>2015-07-27T15:19:51Z</time>
      </trkpt>
      <trkpt lat="44.88583" lon="4.37691">
        <ele>639.431</ele>
        <time>2015-07-27T15:19:52Z</time>
      </trkpt>
      <trkpt lat="44.88589" lon="4.37695">
        <ele>639.275</ele>
        <time>2015-07-27T15:19:54Z</time>
      </trkpt>
      <trkpt lat="44.88594" lon="4.37698">
        <ele>637.304</ele>
        <time>2015-07-27T15:20:06Z</time>
      </trkpt>
      <trkpt lat="44.88596" lon="4.37696">
        <ele>636.453</ele>
        <time>2015-07-27T15:20:15Z</time>
      </trkpt>
      <trkpt lat="44.88598" lon="4.37684">
        <ele>633.863</ele>
        <time>2015-07-27T15:20:27Z</time>
      </trkpt>
      <trkpt lat="44.88584" lon="4.37671">
        <ele>633.187</ele>
        <time>2015-07-27T15:20:41Z</time>
      </trkpt>
      <trkpt lat="44.88575" lon="4.37662">
        <ele>633.694</ele>
        <time>2015-07-27T15:20:47Z</time>
      </trkpt>
      <trkpt lat="44.88562" lon="4.37641">
        <ele>634.667</ele>
        <time>2015-07-27T15:20:57Z</time>
      </trkpt>
      <trkpt lat="44.88545" lon="4.37632">
        <ele>634.265</ele>
        <time>2015-07-27T15:21:10Z</time>
      </trkpt>
      <trkpt lat="44.88539" lon="4.37628">
        <ele>633.018</ele>
        <time>2015-07-27T15:21:27Z</time>
      </trkpt>
      <trkpt lat="44.88535" lon="4.37623">
        <ele>631.451</ele>
        <time>2015-07-27T15:21:43Z</time>
      </trkpt>
      <trkpt lat="44.88532" lon="4.37622">
        <ele>632.08</ele>
        <time>2015-07-27T15:21:46Z</time>
      </trkpt>
      <trkpt lat="44.8853" lon="4.37619">
        <ele>630.909</ele>
        <time>2015-07-27T15:22:01Z</time>
      </trkpt>
      <trkpt lat="44.88522" lon="4.37602">
        <ele>628.885</ele>
        <time>2015-07-27T15:22:08Z</time>
      </trkpt>
      <trkpt lat="44.8852" lon="4.37596">
        <ele>627.564</ele>
        <time>2015-07-27T15:22:11Z</time>
      </trkpt>
      <trkpt lat="44.88519" lon="4.37593">
        <ele>626.959</ele>
        <time>2015-07-27T15:22:12Z</time>
      </trkpt>
      <trkpt lat="44.88516" lon="4.37565">
        <ele>623.706</ele>
        <time>2015-07-27T15:22:19Z</time>
      </trkpt>
      <trkpt lat="44.88516" lon="4.37559">
        <ele>623.706</ele>
        <time>2015-07-27T15:22:20Z</time>
      </trkpt>
      <trkpt lat="44.88518" lon="4.37527">
        <ele>619.819</ele>
        <time>2015-07-27T15:22:28Z</time>
      </trkpt>
      <trkpt lat="44.88519" lon="4.37511">
        <ele>618.549</ele>
        <time>2015-07-27T15:22:31Z</time>
      </trkpt>
      <trkpt lat="44.88517" lon="4.37499">
        <ele>617.148</ele>
        <time>2015-07-27T15:22:34Z</time>
      </trkpt>
      <trkpt lat="44.88516" lon="4.37482">
        <ele>613.951</ele>
        <time>2015-07-27T15:22:40Z</time>
      </trkpt>
      <trkpt lat="44.88516" lon="4.37478">
        <ele>613.951</ele>
        <time>2015-07-27T15:22:41Z</time>
      </trkpt>
      <trkpt lat="44.88514" lon="4.37465">
        <ele>610.759</ele>
        <time>2015-07-27T15:22:46Z</time>
      </trkpt>
      <trkpt lat="44.88514" lon="4.37461">
        <ele>609.533</ele>
        <time>2015-07-27T15:22:47Z</time>
      </trkpt>
      <trkpt lat="44.88513" lon="4.37449">
        <ele>607.501</ele>
        <time>2015-07-27T15:22:52Z</time>
      </trkpt>
      <trkpt lat="44.88511" lon="4.3744">
        <ele>603.45</ele>
        <time>2015-07-27T15:22:57Z</time>
      </trkpt>
      <trkpt lat="44.88503" lon="4.37433">
        <ele>602.375</ele>
        <time>2015-07-27T15:23:09Z</time>
      </trkpt>
      <trkpt lat="44.88503" lon="4.37425">
        <ele>601.03</ele>
        <time>2015-07-27T15:23:18Z</time>
      </trkpt>
      <trkpt lat="44.88503" lon="4.37417">
        <ele>597.386</ele>
        <time>2015-07-27T15:23:24Z</time>
      </trkpt>
      <trkpt lat="44.88502" lon="4.37413">
        <ele>595.951</ele>
        <time>2015-07-27T15:23:26Z</time>
      </trkpt>
      <trkpt lat="44.88502" lon="4.37394">
        <ele>593.103</ele>
        <time>2015-07-27T15:23:32Z</time>
      </trkpt>
      <trkpt lat="44.88502" lon="4.37375">
        <ele>589.739</ele>
        <time>2015-07-27T15:23:39Z</time>
      </trkpt>
      <trkpt lat="44.88503" lon="4.37367">
        <ele>588.659</ele>
        <time>2015-07-27T15:23:41Z</time>
      </trkpt>
      <trkpt lat="44.88504" lon="4.37363">
        <ele>587.409</ele>
        <time>2015-07-27T15:23:43Z</time>
      </trkpt>
      <trkpt lat="44.88507" lon="4.37347">
        <ele>585.353</ele>
        <time>2015-07-27T15:23:48Z</time>
      </trkpt>
      <trkpt lat="44.88507" lon="4.37334">
        <ele>582.336</ele>
        <time>2015-07-27T15:23:54Z</time>
      </trkpt>
      <trkpt lat="44.88502" lon="4.37314">
        <ele>579.664</ele>
        <time>2015-07-27T15:24:02Z</time>
      </trkpt>
      <trkpt lat="44.88502" lon="4.37297">
        <ele>576.427</ele>
        <time>2015-07-27T15:24:08Z</time>
      </trkpt>
      <trkpt lat="44.88503" lon="4.37277">
        <ele>572.892</ele>
        <time>2015-07-27T15:24:17Z</time>
      </trkpt>
      <trkpt lat="44.88503" lon="4.3726">
        <ele>569.88</ele>
        <time>2015-07-27T15:24:24Z</time>
      </trkpt>
      <trkpt lat="44.88505" lon="4.37246">
        <ele>567.98</ele>
        <time>2015-07-27T15:24:40Z</time>
      </trkpt>
      <trkpt lat="44.88506" lon="4.37225">
        <ele>564.563</ele>
        <time>2015-07-27T15:24:47Z</time>
      </trkpt>
      <trkpt lat="44.88506" lon="4.37203">
        <ele>561.969</ele>
        <time>2015-07-27T15:24:53Z</time>
      </trkpt>
      <trkpt lat="44.88505" lon="4.37191">
        <ele>558.761</ele>
        <time>2015-07-27T15:25:05Z</time>
      </trkpt>
      <trkpt lat="44.88502" lon="4.37174">
        <ele>559.482</ele>
        <time>2015-07-27T15:25:21Z</time>
      </trkpt>
      <trkpt lat="44.88502" lon="4.3717">
        <ele>559.564</ele>
        <time>2015-07-27T15:25:25Z</time>
      </trkpt>
      <trkpt lat="44.885" lon="4.37159">
        <ele>559.125</ele>
        <time>2015-07-27T15:25:28Z</time>
      </trkpt>
      <trkpt lat="44.88496" lon="4.37144">
        <ele>557.273</ele>
        <time>2015-07-27T15:25:34Z</time>
      </trkpt>
      <trkpt lat="44.88471" lon="4.37119">
        <ele>553.582</ele>
        <time>2015-07-27T15:25:42Z</time>
      </trkpt>
      <trkpt lat="44.88458" lon="4.37107">
        <ele>552.179</ele>
        <time>2015-07-27T15:25:45Z</time>
      </trkpt>
      <trkpt lat="44.8845" lon="4.37088">
        <ele>552.166</ele>
        <time>2015-07-27T15:25:49Z</time>
      </trkpt>
      <trkpt lat="44.88441" lon="4.37064">
        <ele>551.249</ele>
        <time>2015-07-27T15:25:54Z</time>
      </trkpt>
      <trkpt lat="44.88431" lon="4.37055">
        <ele>550.337</ele>
        <time>2015-07-27T15:25:57Z</time>
      </trkpt>
      <trkpt lat="44.88417" lon="4.37026">
        <ele>549.954</ele>
        <time>2015-07-27T15:26:02Z</time>
      </trkpt>
      <trkpt lat="44.88405" lon="4.37012">
        <ele>549.478</ele>
        <time>2015-07-27T15:26:06Z</time>
      </trkpt>
      <trkpt lat="44.88365" lon="4.36966">
        <ele>550.353</ele>
        <time>2015-07-27T15:26:20Z</time>
      </trkpt>
      <trkpt lat="44.88308" lon="4.36908">
        <ele>551.719</ele>
        <time>2015-07-27T15:26:35Z</time>
      </trkpt>
      <trkpt lat="44.8826" lon="4.36857">
        <ele>552.324</ele>
        <time>2015-07-27T15:26:48Z</time>
      </trkpt>
      <trkpt lat="44.8824" lon="4.36841">
        <ele>552.646</ele>
        <time>2015-07-27T15:26:53Z</time>
      </trkpt>
      <trkpt lat="44.88223" lon="4.36818">
        <ele>553.318</ele>
        <time>2015-07-27T15:26:58Z</time>
      </trkpt>
      <trkpt lat="44.88161" lon="4.36749">
        <ele>554.105</ele>
        <time>2015-07-27T15:27:14Z</time>
      </trkpt>
      <trkpt lat="44.88144" lon="4.36734">
        <ele>554.02</ele>
        <time>2015-07-27T15:27:18Z</time>
      </trkpt>
      <trkpt lat="44.88116" lon="4.36704">
        <ele>554.435</ele>
        <time>2015-07-27T15:27:25Z</time>
      </trkpt>
      <trkpt lat="44.8804" lon="4.36624">
        <ele>556.372</ele>
        <time>2015-07-27T15:27:43Z</time>
      </trkpt>
      <trkpt lat="44.88032" lon="4.36616">
        <ele>556.018</ele>
        <time>2015-07-27T15:27:45Z</time>
      </trkpt>
      <trkpt lat="44.88023" lon="4.36609">
        <ele>555.947</ele>
        <time>2015-07-27T15:27:47Z</time>
      </trkpt>
      <trkpt lat="44.88014" lon="4.36603">
        <ele>556.1</ele>
        <time>2015-07-27T15:27:49Z</time>
      </trkpt>
      <trkpt lat="44.88014" lon="4.36571">
        <ele>556.517</ele>
        <time>2015-07-27T15:27:55Z</time>
      </trkpt>
      <trkpt lat="44.88023" lon="4.36551">
        <ele>556.134</ele>
        <time>2015-07-27T15:27:58Z</time>
      </trkpt>
      <trkpt lat="44.88031" lon="4.36524">
        <ele>555.759</ele>
        <time>2015-07-27T15:28:02Z</time>
      </trkpt>
      <trkpt lat="44.88034" lon="4.36512">
        <ele>557.019</ele>
        <time>2015-07-27T15:28:04Z</time>
      </trkpt>
      <trkpt lat="44.88051" lon="4.36496">
        <ele>556.256</ele>
        <time>2015-07-27T15:28:08Z</time>
      </trkpt>
      <trkpt lat="44.88063" lon="4.36491">
        <ele>556.938</ele>
        <time>2015-07-27T15:28:10Z</time>
      </trkpt>
      <trkpt lat="44.88103" lon="4.36487">
        <ele>554.338</ele>
        <time>2015-07-27T15:28:16Z</time>
      </trkpt>
      <trkpt lat="44.88123" lon="4.36494">
        <ele>552.993</ele>
        <time>2015-07-27T15:28:19Z</time>
      </trkpt>
      <trkpt lat="44.88132" lon="4.36499">
        <ele>552.171</ele>
        <time>2015-07-27T15:28:21Z</time>
      </trkpt>
      <trkpt lat="44.88141" lon="4.36486">
        <ele>552.366</ele>
        <time>2015-07-27T15:28:26Z</time>
      </trkpt>
      <trkpt lat="44.88125" lon="4.36443">
        <ele>556.034</ele>
        <time>2015-07-27T15:28:38Z</time>
      </trkpt>
      <trkpt lat="44.88123" lon="4.36398">
        <ele>559.11</ele>
        <time>2015-07-27T15:28:52Z</time>
      </trkpt>
      <trkpt lat="44.88136" lon="4.36355">
        <ele>562.241</ele>
        <time>2015-07-27T15:29:06Z</time>
      </trkpt>
      <trkpt lat="44.88145" lon="4.36307">
        <ele>565.773</ele>
        <time>2015-07-27T15:29:20Z</time>
      </trkpt>
      <trkpt lat="44.88153" lon="4.36262">
        <ele>568.173</ele>
        <time>2015-07-27T15:29:33Z</time>
      </trkpt>
      <trkpt lat="44.88155" lon="4.3622">
        <ele>571.188</ele>
        <time>2015-07-27T15:29:45Z</time>
      </trkpt>
      <trkpt lat="44.8815" lon="4.36165">
        <ele>574.564</ele>
        <time>2015-07-27T15:30:02Z</time>
      </trkpt>
      <trkpt lat="44.88133" lon="4.3611">
        <ele>578.089</ele>
        <time>2015-07-27T15:30:20Z</time>
      </trkpt>
      <trkpt lat="44.88125" lon="4.36048">
        <ele>580.594</ele>
        <time>2015-07-27T15:30:40Z</time>
      </trkpt>
      <trkpt lat="44.88117" lon="4.35986">
        <ele>583.665</ele>
        <time>2015-07-27T15:30:59Z</time>
      </trkpt>
      <trkpt lat="44.88108" lon="4.35924">
        <ele>587.044</ele>
        <time>2015-07-27T15:31:18Z</time>
      </trkpt>
      <trkpt lat="44.88103" lon="4.35856">
        <ele>589.446</ele>
        <time>2015-07-27T15:31:38Z</time>
      </trkpt>
      <trkpt lat="44.88089" lon="4.35781">
        <ele>591.713</ele>
        <time>2015-07-27T15:31:58Z</time>
      </trkpt>
      <trkpt lat="44.88073" lon="4.35704">
        <ele>594.744</ele>
        <time>2015-07-27T15:32:18Z</time>
      </trkpt>
      <trkpt lat="44.88062" lon="4.35635">
        <ele>597.043</ele>
        <time>2015-07-27T15:32:36Z</time>
      </trkpt>
      <trkpt lat="44.88026" lon="4.35602">
        <ele>598.541</ele>
        <time>2015-07-27T15:32:50Z</time>
      </trkpt>
      <trkpt lat="44.87997" lon="4.35613">
        <ele>601.516</ele>
        <time>2015-07-27T15:33:04Z</time>
      </trkpt>
      <trkpt lat="44.87978" lon="4.35598">
        <ele>604.349</ele>
        <time>2015-07-27T15:33:16Z</time>
      </trkpt>
      <trkpt lat="44.87959" lon="4.35555">
        <ele>607.403</ele>
        <time>2015-07-27T15:33:32Z</time>
      </trkpt>
      <trkpt lat="44.87932" lon="4.35509">
        <ele>610.415</ele>
        <time>2015-07-27T15:33:51Z</time>
      </trkpt>
      <trkpt lat="44.87907" lon="4.35459">
        <ele>612.529</ele>
        <time>2015-07-27T15:34:10Z</time>
      </trkpt>
      <trkpt lat="44.87903" lon="4.35446">
        <ele>613.052</ele>
        <time>2015-07-27T15:34:15Z</time>
      </trkpt>
      <trkpt lat="44.87907" lon="4.35406">
        <ele>616.086</ele>
        <time>2015-07-27T15:34:30Z</time>
      </trkpt>
      <trkpt lat="44.87919" lon="4.35358">
        <ele>618.002</ele>
        <time>2015-07-27T15:34:46Z</time>
      </trkpt>
      <trkpt lat="44.87922" lon="4.35352">
        <ele>618.911</ele>
        <time>2015-07-27T15:34:48Z</time>
      </trkpt>
      <trkpt lat="44.87954" lon="4.35309">
        <ele>620.755</ele>
        <time>2015-07-27T15:35:07Z</time>
      </trkpt>
      <trkpt lat="44.87977" lon="4.35256">
        <ele>623.918</ele>
        <time>2015-07-27T15:35:26Z</time>
      </trkpt>
      <trkpt lat="44.87966" lon="4.35212">
        <ele>626.066</ele>
        <time>2015-07-27T15:35:39Z</time>
      </trkpt>
      <trkpt lat="44.87958" lon="4.35158">
        <ele>629.078</ele>
        <time>2015-07-27T15:35:54Z</time>
      </trkpt>
      <trkpt lat="44.87964" lon="4.35082">
        <ele>631.755</ele>
        <time>2015-07-27T15:36:15Z</time>
      </trkpt>
      <trkpt lat="44.87959" lon="4.35032">
        <ele>634.928</ele>
        <time>2015-07-27T15:36:29Z</time>
      </trkpt>
      <trkpt lat="44.87946" lon="4.34956">
        <ele>636.144</ele>
        <time>2015-07-27T15:36:50Z</time>
      </trkpt>
      <trkpt lat="44.87935" lon="4.34897">
        <ele>639.283</ele>
        <time>2015-07-27T15:37:08Z</time>
      </trkpt>
      <trkpt lat="44.87926" lon="4.34838">
        <ele>642.636</ele>
        <time>2015-07-27T15:37:26Z</time>
      </trkpt>
      <trkpt lat="44.87909" lon="4.3477">
        <ele>645.167</ele>
        <time>2015-07-27T15:37:46Z</time>
      </trkpt>
      <trkpt lat="44.87923" lon="4.34729">
        <ele>647.519</ele>
        <time>2015-07-27T15:38:00Z</time>
      </trkpt>
      <trkpt lat="44.8796" lon="4.34723">
        <ele>650.727</ele>
        <time>2015-07-27T15:38:15Z</time>
      </trkpt>
      <trkpt lat="44.88" lon="4.34699">
        <ele>652.941</ele>
        <time>2015-07-27T15:38:32Z</time>
      </trkpt>
      <trkpt lat="44.88008" lon="4.34698">
        <ele>654.257</ele>
        <time>2015-07-27T15:38:35Z</time>
      </trkpt>
      <trkpt lat="44.88009" lon="4.34669">
        <ele>655.311</ele>
        <time>2015-07-27T15:38:44Z</time>
      </trkpt>
      <trkpt lat="44.87984" lon="4.34636">
        <ele>657.914</ele>
        <time>2015-07-27T15:38:57Z</time>
      </trkpt>
      <trkpt lat="44.87969" lon="4.34587">
        <ele>660.331</ele>
        <time>2015-07-27T15:39:12Z</time>
      </trkpt>
      <trkpt lat="44.87963" lon="4.34539">
        <ele>662.35</ele>
        <time>2015-07-27T15:39:25Z</time>
      </trkpt>
      <trkpt lat="44.87964" lon="4.34485">
        <ele>665.199</ele>
        <time>2015-07-27T15:39:40Z</time>
      </trkpt>
      <trkpt lat="44.87965" lon="4.34425">
        <ele>667.371</ele>
        <time>2015-07-27T15:39:56Z</time>
      </trkpt>
      <trkpt lat="44.87972" lon="4.3436">
        <ele>670.626</ele>
        <time>2015-07-27T15:40:13Z</time>
      </trkpt>
      <trkpt lat="44.87994" lon="4.34295">
        <ele>673.469</ele>
        <time>2015-07-27T15:40:34Z</time>
      </trkpt>
      <trkpt lat="44.88001" lon="4.34238">
        <ele>675.564</ele>
        <time>2015-07-27T15:40:51Z</time>
      </trkpt>
      <trkpt lat="44.87998" lon="4.34171">
        <ele>678.812</ele>
        <time>2015-07-27T15:41:11Z</time>
      </trkpt>
      <trkpt lat="44.88" lon="4.34109">
        <ele>680.96</ele>
        <time>2015-07-27T15:41:28Z</time>
      </trkpt>
      <trkpt lat="44.88016" lon="4.34063">
        <ele>683.254</ele>
        <time>2015-07-27T15:41:44Z</time>
      </trkpt>
      <trkpt lat="44.88046" lon="4.3405">
        <ele>685.233</ele>
        <time>2015-07-27T15:41:57Z</time>
      </trkpt>
      <trkpt lat="44.8805" lon="4.34027">
        <ele>686.171</ele>
        <time>2015-07-27T15:42:04Z</time>
      </trkpt>
      <trkpt lat="44.88043" lon="4.33985">
        <ele>687.983</ele>
        <time>2015-07-27T15:42:16Z</time>
      </trkpt>
      <trkpt lat="44.88044" lon="4.3395">
        <ele>689.667</ele>
        <time>2015-07-27T15:42:28Z</time>
      </trkpt>
      <trkpt lat="44.88062" lon="4.33892">
        <ele>693.028</ele>
        <time>2015-07-27T15:42:46Z</time>
      </trkpt>
      <trkpt lat="44.88079" lon="4.33832">
        <ele>696.058</ele>
        <time>2015-07-27T15:43:05Z</time>
      </trkpt>
      <trkpt lat="44.88089" lon="4.33776">
        <ele>698.177</ele>
        <time>2015-07-27T15:43:22Z</time>
      </trkpt>
      <trkpt lat="44.88114" lon="4.33749">
        <ele>699.456</ele>
        <time>2015-07-27T15:43:35Z</time>
      </trkpt>
      <trkpt lat="44.88144" lon="4.33707">
        <ele>701.842</ele>
        <time>2015-07-27T15:43:52Z</time>
      </trkpt>
      <trkpt lat="44.88176" lon="4.33683">
        <ele>704.889</ele>
        <time>2015-07-27T15:44:07Z</time>
      </trkpt>
      <trkpt lat="44.88217" lon="4.33662">
        <ele>708.237</ele>
        <time>2015-07-27T15:44:25Z</time>
      </trkpt>
      <trkpt lat="44.88221" lon="4.33657">
        <ele>708.205</ele>
        <time>2015-07-27T15:44:27Z</time>
      </trkpt>
      <trkpt lat="44.8822" lon="4.33638">
        <ele>709.098</ele>
        <time>2015-07-27T15:44:32Z</time>
      </trkpt>
      <trkpt lat="44.88204" lon="4.3362">
        <ele>710.187</ele>
        <time>2015-07-27T15:44:40Z</time>
      </trkpt>
      <trkpt lat="44.88191" lon="4.33614">
        <ele>710.625</ele>
        <time>2015-07-27T15:44:43Z</time>
      </trkpt>
      <trkpt lat="44.88151" lon="4.33574">
        <ele>713.955</ele>
        <time>2015-07-27T15:44:57Z</time>
      </trkpt>
      <trkpt lat="44.88157" lon="4.3352">
        <ele>716.682</ele>
        <time>2015-07-27T15:45:11Z</time>
      </trkpt>
      <trkpt lat="44.88165" lon="4.33483">
        <ele>718.618</ele>
        <time>2015-07-27T15:45:25Z</time>
      </trkpt>
      <trkpt lat="44.88177" lon="4.3344">
        <ele>720.516</ele>
        <time>2015-07-27T15:45:40Z</time>
      </trkpt>
      <trkpt lat="44.88204" lon="4.33381">
        <ele>723.509</ele>
        <time>2015-07-27T15:46:01Z</time>
      </trkpt>
      <trkpt lat="44.88223" lon="4.33345">
        <ele>726.789</ele>
        <time>2015-07-27T15:46:14Z</time>
      </trkpt>
      <trkpt lat="44.88215" lon="4.33299">
        <ele>729.418</ele>
        <time>2015-07-27T15:46:27Z</time>
      </trkpt>
      <trkpt lat="44.88211" lon="4.3327">
        <ele>730.913</ele>
        <time>2015-07-27T15:46:37Z</time>
      </trkpt>
      <trkpt lat="44.88209" lon="4.33257">
        <ele>731.513</ele>
        <time>2015-07-27T15:46:43Z</time>
      </trkpt>
      <trkpt lat="44.88211" lon="4.3325">
        <ele>731.851</ele>
        <time>2015-07-27T15:46:46Z</time>
      </trkpt>
      <trkpt lat="44.88226" lon="4.33202">
        <ele>733.653</ele>
        <time>2015-07-27T15:46:59Z</time>
      </trkpt>
      <trkpt lat="44.88243" lon="4.33179">
        <ele>735.831</ele>
        <time>2015-07-27T15:47:08Z</time>
      </trkpt>
      <trkpt lat="44.8825" lon="4.33172">
        <ele>737.619</ele>
        <time>2015-07-27T15:47:17Z</time>
      </trkpt>
      <trkpt lat="44.88247" lon="4.33165">
        <ele>738.734</ele>
        <time>2015-07-27T15:47:24Z</time>
      </trkpt>
      <trkpt lat="44.88191" lon="4.33107">
        <ele>740.484</ele>
        <time>2015-07-27T15:47:37Z</time>
      </trkpt>
      <trkpt lat="44.88179" lon="4.33039">
        <ele>743.197</ele>
        <time>2015-07-27T15:47:54Z</time>
      </trkpt>
      <trkpt lat="44.88181" lon="4.33">
        <ele>745.797</ele>
        <time>2015-07-27T15:48:04Z</time>
      </trkpt>
      <trkpt lat="44.88194" lon="4.32938">
        <ele>748.125</ele>
        <time>2015-07-27T15:48:23Z</time>
      </trkpt>
      <trkpt lat="44.88198" lon="4.32926">
        <ele>749.214</ele>
        <time>2015-07-27T15:48:27Z</time>
      </trkpt>
      <trkpt lat="44.88195" lon="4.32892">
        <ele>750.345</ele>
        <time>2015-07-27T15:48:40Z</time>
      </trkpt>
      <trkpt lat="44.88174" lon="4.32892">
        <ele>751.846</ele>
        <time>2015-07-27T15:48:53Z</time>
      </trkpt>
      <trkpt lat="44.88153" lon="4.3291">
        <ele>753.537</ele>
        <time>2015-07-27T15:49:04Z</time>
      </trkpt>
      <trkpt lat="44.88119" lon="4.32913">
        <ele>756.126</ele>
        <time>2015-07-27T15:49:14Z</time>
      </trkpt>
      <trkpt lat="44.88078" lon="4.32913">
        <ele>758.48</ele>
        <time>2015-07-27T15:49:25Z</time>
      </trkpt>
      <trkpt lat="44.88053" lon="4.32909">
        <ele>760.002</ele>
        <time>2015-07-27T15:49:32Z</time>
      </trkpt>
      <trkpt lat="44.88022" lon="4.32905">
        <ele>762.087</ele>
        <time>2015-07-27T15:49:43Z</time>
      </trkpt>
      <trkpt lat="44.87988" lon="4.32919">
        <ele>763.789</ele>
        <time>2015-07-27T15:49:55Z</time>
      </trkpt>
      <trkpt lat="44.87953" lon="4.32922">
        <ele>766.291</ele>
        <time>2015-07-27T15:50:07Z</time>
      </trkpt>
      <trkpt lat="44.87921" lon="4.32927">
        <ele>768.677</ele>
        <time>2015-07-27T15:50:19Z</time>
      </trkpt>
      <trkpt lat="44.87899" lon="4.3289">
        <ele>770.704</ele>
        <time>2015-07-27T15:50:32Z</time>
      </trkpt>
      <trkpt lat="44.87871" lon="4.32908">
        <ele>772.516</ele>
        <time>2015-07-27T15:50:45Z</time>
      </trkpt>
      <trkpt lat="44.8787" lon="4.32937">
        <ele>774.522</ele>
        <time>2015-07-27T15:50:52Z</time>
      </trkpt>
      <trkpt lat="44.87885" lon="4.33">
        <ele>776.921</ele>
        <time>2015-07-27T15:51:10Z</time>
      </trkpt>
      <trkpt lat="44.87919" lon="4.33041">
        <ele>780.319</ele>
        <time>2015-07-27T15:51:27Z</time>
      </trkpt>
      <trkpt lat="44.87949" lon="4.33055">
        <ele>782.84</ele>
        <time>2015-07-27T15:51:40Z</time>
      </trkpt>
      <trkpt lat="44.8796" lon="4.33074">
        <ele>784.684</ele>
        <time>2015-07-27T15:51:47Z</time>
      </trkpt>
      <trkpt lat="44.87953" lon="4.33109">
        <ele>785.839</ele>
        <time>2015-07-27T15:51:58Z</time>
      </trkpt>
      <trkpt lat="44.87915" lon="4.33117">
        <ele>788.429</ele>
        <time>2015-07-27T15:52:12Z</time>
      </trkpt>
      <trkpt lat="44.87889" lon="4.33092">
        <ele>792.043</ele>
        <time>2015-07-27T15:52:25Z</time>
      </trkpt>
      <trkpt lat="44.87867" lon="4.33081">
        <ele>793.737</ele>
        <time>2015-07-27T15:52:37Z</time>
      </trkpt>
      <trkpt lat="44.87845" lon="4.33098">
        <ele>796.762</ele>
        <time>2015-07-27T15:52:48Z</time>
      </trkpt>
      <trkpt lat="44.87821" lon="4.33069">
        <ele>798.8</ele>
        <time>2015-07-27T15:53:01Z</time>
      </trkpt>
      <trkpt lat="44.87818" lon="4.33023">
        <ele>801.833</ele>
        <time>2015-07-27T15:53:14Z</time>
      </trkpt>
      <trkpt lat="44.87803" lon="4.3297">
        <ele>803.807</ele>
        <time>2015-07-27T15:53:30Z</time>
      </trkpt>
      <trkpt lat="44.878" lon="4.32965">
        <ele>804.52</ele>
        <time>2015-07-27T15:53:42Z</time>
      </trkpt>
      <trkpt lat="44.87798" lon="4.32963">
        <ele>803.062</ele>
        <time>2015-07-27T15:54:02Z</time>
      </trkpt>
      <trkpt lat="44.87799" lon="4.32964">
        <ele>804.092</ele>
        <time>2015-07-27T15:56:05Z</time>
      </trkpt>
      <trkpt lat="44.87796" lon="4.32962">
        <ele>804.417</ele>
        <time>2015-07-27T15:56:08Z</time>
      </trkpt>
      <trkpt lat="44.87793" lon="4.32951">
        <ele>805.168</ele>
        <time>2015-07-27T15:56:13Z</time>
      </trkpt>
      <trkpt lat="44.87781" lon="4.32918">
        <ele>808.262</ele>
        <time>2015-07-27T15:56:28Z</time>
      </trkpt>
      <trkpt lat="44.87769" lon="4.32889">
        <ele>810.574</ele>
        <time>2015-07-27T15:56:41Z</time>
      </trkpt>
      <trkpt lat="44.87761" lon="4.32855">
        <ele>813.496</ele>
        <time>2015-07-27T15:56:57Z</time>
      </trkpt>
      <trkpt lat="44.87738" lon="4.32812">
        <ele>817.174</ele>
        <time>2015-07-27T15:57:33Z</time>
      </trkpt>
      <trkpt lat="44.87714" lon="4.32779">
        <ele>820.189</ele>
        <time>2015-07-27T15:57:51Z</time>
      </trkpt>
      <trkpt lat="44.87691" lon="4.32743">
        <ele>822.472</ele>
        <time>2015-07-27T15:58:08Z</time>
      </trkpt>
      <trkpt lat="44.87663" lon="4.32709">
        <ele>825.484</ele>
        <time>2015-07-27T15:58:26Z</time>
      </trkpt>
      <trkpt lat="44.87647" lon="4.32684">
        <ele>828.404</ele>
        <time>2015-07-27T15:58:38Z</time>
      </trkpt>
      <trkpt lat="44.87658" lon="4.32668">
        <ele>830.439</ele>
        <time>2015-07-27T15:58:48Z</time>
      </trkpt>
      <trkpt lat="44.87689" lon="4.32676">
        <ele>834.455</ele>
        <time>2015-07-27T15:59:03Z</time>
      </trkpt>
      <trkpt lat="44.87719" lon="4.32663">
        <ele>836.513</ele>
        <time>2015-07-27T15:59:20Z</time>
      </trkpt>
      <trkpt lat="44.8772" lon="4.32647">
        <ele>838.516</ele>
        <time>2015-07-27T15:59:27Z</time>
      </trkpt>
      <trkpt lat="44.87722" lon="4.32639">
        <ele>839.642</ele>
        <time>2015-07-27T15:59:31Z</time>
      </trkpt>
      <trkpt lat="44.87745" lon="4.3264">
        <ele>841.214</ele>
        <time>2015-07-27T15:59:44Z</time>
      </trkpt>
      <trkpt lat="44.87765" lon="4.32648">
        <ele>842.963</ele>
        <time>2015-07-27T15:59:55Z</time>
      </trkpt>
      <trkpt lat="44.87797" lon="4.32647">
        <ele>846.065</ele>
        <time>2015-07-27T16:00:12Z</time>
      </trkpt>
      <trkpt lat="44.87837" lon="4.32632">
        <ele>849.366</ele>
        <time>2015-07-27T16:00:33Z</time>
      </trkpt>
      <trkpt lat="44.87875" lon="4.32624">
        <ele>852.518</ele>
        <time>2015-07-27T16:00:52Z</time>
      </trkpt>
      <trkpt lat="44.87913" lon="4.32629">
        <ele>855.911</ele>
        <time>2015-07-27T16:01:10Z</time>
      </trkpt>
      <trkpt lat="44.87945" lon="4.32627">
        <ele>859.274</ele>
        <time>2015-07-27T16:01:27Z</time>
      </trkpt>
      <trkpt lat="44.87977" lon="4.32593">
        <ele>862.461</ele>
        <time>2015-07-27T16:01:47Z</time>
      </trkpt>
      <trkpt lat="44.87997" lon="4.32574">
        <ele>865.582</ele>
        <time>2015-07-27T16:02:01Z</time>
      </trkpt>
      <trkpt lat="44.88001" lon="4.32566">
        <ele>865.693</ele>
        <time>2015-07-27T16:02:05Z</time>
      </trkpt>
      <trkpt lat="44.88007" lon="4.32522">
        <ele>868.591</ele>
        <time>2015-07-27T16:02:21Z</time>
      </trkpt>
      <trkpt lat="44.88027" lon="4.32467">
        <ele>872.031</ele>
        <time>2015-07-27T16:02:43Z</time>
      </trkpt>
      <trkpt lat="44.88042" lon="4.32435">
        <ele>875.11</ele>
        <time>2015-07-27T16:02:57Z</time>
      </trkpt>
      <trkpt lat="44.8806" lon="4.32399">
        <ele>878.048</ele>
        <time>2015-07-27T16:03:13Z</time>
      </trkpt>
      <trkpt lat="44.88083" lon="4.32365">
        <ele>881.383</ele>
        <time>2015-07-27T16:03:32Z</time>
      </trkpt>
      <trkpt lat="44.88109" lon="4.32364">
        <ele>884.228</ele>
        <time>2015-07-27T16:03:47Z</time>
      </trkpt>
      <trkpt lat="44.88134" lon="4.32354">
        <ele>887.74</ele>
        <time>2015-07-27T16:04:02Z</time>
      </trkpt>
      <trkpt lat="44.88174" lon="4.32345">
        <ele>891.114</ele>
        <time>2015-07-27T16:04:23Z</time>
      </trkpt>
      <trkpt lat="44.88205" lon="4.32316">
        <ele>894.367</ele>
        <time>2015-07-27T16:04:43Z</time>
      </trkpt>
      <trkpt lat="44.88241" lon="4.3228">
        <ele>897.641</ele>
        <time>2015-07-27T16:05:07Z</time>
      </trkpt>
      <trkpt lat="44.88274" lon="4.32268">
        <ele>900.801</ele>
        <time>2015-07-27T16:05:25Z</time>
      </trkpt>
      <trkpt lat="44.88308" lon="4.32259">
        <ele>904.12</ele>
        <time>2015-07-27T16:05:44Z</time>
      </trkpt>
      <trkpt lat="44.88335" lon="4.32257">
        <ele>905.782</ele>
        <time>2015-07-27T16:05:59Z</time>
      </trkpt>
      <trkpt lat="44.88371" lon="4.32267">
        <ele>908.815</ele>
        <time>2015-07-27T16:06:18Z</time>
      </trkpt>
      <trkpt lat="44.88397" lon="4.32277">
        <ele>912.042</ele>
        <time>2015-07-27T16:06:32Z</time>
      </trkpt>
      <trkpt lat="44.88439" lon="4.32289">
        <ele>915.667</ele>
        <time>2015-07-27T16:06:55Z</time>
      </trkpt>
      <trkpt lat="44.88441" lon="4.32289">
        <ele>916.467</ele>
        <time>2015-07-27T16:06:57Z</time>
      </trkpt>
      <trkpt lat="44.88465" lon="4.32291">
        <ele>919.784</ele>
        <time>2015-07-27T16:07:11Z</time>
      </trkpt>
      <trkpt lat="44.8849" lon="4.32316">
        <ele>922.904</ele>
        <time>2015-07-27T16:07:28Z</time>
      </trkpt>
      <trkpt lat="44.88517" lon="4.32346">
        <ele>926.469</ele>
        <time>2015-07-27T16:07:46Z</time>
      </trkpt>
      <trkpt lat="44.88519" lon="4.32353">
        <ele>927.396</ele>
        <time>2015-07-27T16:07:57Z</time>
      </trkpt>
      <trkpt lat="44.88517" lon="4.32351">
        <ele>926.706</ele>
        <time>2015-07-27T16:08:17Z</time>
      </trkpt>
      <trkpt lat="44.8852" lon="4.32354">
        <ele>927.777</ele>
        <time>2015-07-27T16:09:49Z</time>
      </trkpt>
      <trkpt lat="44.88527" lon="4.32373">
        <ele>930.303</ele>
        <time>2015-07-27T16:09:57Z</time>
      </trkpt>
      <trkpt lat="44.88526" lon="4.32376">
        <ele>930.844</ele>
        <time>2015-07-27T16:10:08Z</time>
      </trkpt>
      <trkpt lat="44.8853" lon="4.32375">
        <ele>930.466</ele>
        <time>2015-07-27T16:10:20Z</time>
      </trkpt>
      <trkpt lat="44.88532" lon="4.32382">
        <ele>930.271</ele>
        <time>2015-07-27T16:11:23Z</time>
      </trkpt>
      <trkpt lat="44.88535" lon="4.32382">
        <ele>929.74</ele>
        <time>2015-07-27T16:11:27Z</time>
      </trkpt>
      <trkpt lat="44.88536" lon="4.32384">
        <ele>929.428</ele>
        <time>2015-07-27T16:11:31Z</time>
      </trkpt>
      <trkpt lat="44.88539" lon="4.32387">
        <ele>929.764</ele>
        <time>2015-07-27T16:11:33Z</time>
      </trkpt>
      <trkpt lat="44.88545" lon="4.32392">
        <ele>928.862</ele>
        <time>2015-07-27T16:11:35Z</time>
      </trkpt>
      <trkpt lat="44.88562" lon="4.32413">
        <ele>928.548</ele>
        <time>2015-07-27T16:11:46Z</time>
      </trkpt>
      <trkpt lat="44.88568" lon="4.32421">
        <ele>928.421</ele>
        <time>2015-07-27T16:11:57Z</time>
      </trkpt>
      <trkpt lat="44.88569" lon="4.32431">
        <ele>927.893</ele>
        <time>2015-07-27T16:12:03Z</time>
      </trkpt>
      <trkpt lat="44.88578" lon="4.32441">
        <ele>926.918</ele>
        <time>2015-07-27T16:12:07Z</time>
      </trkpt>
      <trkpt lat="44.88598" lon="4.3248">
        <ele>924.563</ele>
        <time>2015-07-27T16:12:17Z</time>
      </trkpt>
      <trkpt lat="44.88604" lon="4.32513">
        <ele>926.429</ele>
        <time>2015-07-27T16:12:29Z</time>
      </trkpt>
      <trkpt lat="44.88608" lon="4.32522">
        <ele>928.577</ele>
        <time>2015-07-27T16:12:43Z</time>
      </trkpt>
      <trkpt lat="44.88622" lon="4.32521">
        <ele>931.917</ele>
        <time>2015-07-27T16:13:06Z</time>
      </trkpt>
      <trkpt lat="44.88625" lon="4.32524">
        <ele>933.175</ele>
        <time>2015-07-27T16:13:10Z</time>
      </trkpt>
      <trkpt lat="44.88622" lon="4.32528">
        <ele>931.909</ele>
        <time>2015-07-27T16:13:14Z</time>
      </trkpt>
      <trkpt lat="44.88618" lon="4.3253">
        <ele>932.078</ele>
        <time>2015-07-27T16:13:18Z</time>
      </trkpt>
      <trkpt lat="44.88602" lon="4.32549">
        <ele>932.903</ele>
        <time>2015-07-27T16:13:36Z</time>
      </trkpt>
      <trkpt lat="44.88601" lon="4.32552">
        <ele>932.789</ele>
        <time>2015-07-27T16:13:54Z</time>
      </trkpt>
      <trkpt lat="44.88606" lon="4.32556">
        <ele>934.129</ele>
        <time>2015-07-27T16:14:07Z</time>
      </trkpt>
      <trkpt lat="44.88612" lon="4.32577">
        <ele>934.411</ele>
        <time>2015-07-27T16:14:17Z</time>
      </trkpt>
      <trkpt lat="44.88628" lon="4.32607">
        <ele>934.554</ele>
        <time>2015-07-27T16:14:32Z</time>
      </trkpt>
      <trkpt lat="44.88634" lon="4.32629">
        <ele>936.435</ele>
        <time>2015-07-27T16:14:42Z</time>
      </trkpt>
      <trkpt lat="44.88634" lon="4.32638">
        <ele>937.146</ele>
        <time>2015-07-27T16:14:47Z</time>
      </trkpt>
      <trkpt lat="44.88644" lon="4.32664">
        <ele>937.276</ele>
        <time>2015-07-27T16:15:02Z</time>
      </trkpt>
      <trkpt lat="44.88645" lon="4.32667">
        <ele>936.882</ele>
        <time>2015-07-27T16:15:25Z</time>
      </trkpt>
      <trkpt lat="44.8865" lon="4.32685">
        <ele>937.445</ele>
        <time>2015-07-27T16:15:45Z</time>
      </trkpt>
      <trkpt lat="44.88653" lon="4.3269">
        <ele>937.817</ele>
        <time>2015-07-27T16:15:48Z</time>
      </trkpt>
      <trkpt lat="44.88663" lon="4.32727">
        <ele>939.606</ele>
        <time>2015-07-27T16:16:06Z</time>
      </trkpt>
      <trkpt lat="44.88675" lon="4.32777">
        <ele>940.261</ele>
        <time>2015-07-27T16:16:24Z</time>
      </trkpt>
      <trkpt lat="44.88695" lon="4.32815">
        <ele>939.051</ele>
        <time>2015-07-27T16:16:37Z</time>
      </trkpt>
      <trkpt lat="44.88707" lon="4.32848">
        <ele>940.174</ele>
        <time>2015-07-27T16:16:52Z</time>
      </trkpt>
      <trkpt lat="44.88711" lon="4.32853">
        <ele>940.729</ele>
        <time>2015-07-27T16:17:04Z</time>
      </trkpt>
      <trkpt lat="44.88723" lon="4.32883">
        <ele>942.008</ele>
        <time>2015-07-27T16:17:18Z</time>
      </trkpt>
      <trkpt lat="44.8873" lon="4.32889">
        <ele>942.515</ele>
        <time>2015-07-27T16:17:29Z</time>
      </trkpt>
      <trkpt lat="44.88743" lon="4.32903">
        <ele>943.382</ele>
        <time>2015-07-27T16:17:43Z</time>
      </trkpt>
      <trkpt lat="44.88757" lon="4.32922">
        <ele>946.685</ele>
        <time>2015-07-27T16:17:57Z</time>
      </trkpt>
      <trkpt lat="44.88761" lon="4.32928">
        <ele>947.034</ele>
        <time>2015-07-27T16:18:07Z</time>
      </trkpt>
      <trkpt lat="44.88766" lon="4.32941">
        <ele>948.529</ele>
        <time>2015-07-27T16:18:19Z</time>
      </trkpt>
      <trkpt lat="44.88771" lon="4.32952">
        <ele>949.972</ele>
        <time>2015-07-27T16:18:25Z</time>
      </trkpt>
      <trkpt lat="44.88773" lon="4.32954">
        <ele>950.788</ele>
        <time>2015-07-27T16:18:27Z</time>
      </trkpt>
      <trkpt lat="44.88777" lon="4.32955">
        <ele>951.565</ele>
        <time>2015-07-27T16:18:29Z</time>
      </trkpt>
      <trkpt lat="44.88791" lon="4.32977">
        <ele>955.83</ele>
        <time>2015-07-27T16:18:42Z</time>
      </trkpt>
      <trkpt lat="44.88812" lon="4.33">
        <ele>954.961</ele>
        <time>2015-07-27T16:19:00Z</time>
      </trkpt>
      <trkpt lat="44.8884" lon="4.33034">
        <ele>954.85</ele>
        <time>2015-07-27T16:19:21Z</time>
      </trkpt>
      <trkpt lat="44.88852" lon="4.33046">
        <ele>953.389</ele>
        <time>2015-07-27T16:19:27Z</time>
      </trkpt>
      <trkpt lat="44.88857" lon="4.33097">
        <ele>952.078</ele>
        <time>2015-07-27T16:19:37Z</time>
      </trkpt>
      <trkpt lat="44.88857" lon="4.33103">
        <ele>952.118</ele>
        <time>2015-07-27T16:19:39Z</time>
      </trkpt>
      <trkpt lat="44.88858" lon="4.33176">
        <ele>952.052</ele>
        <time>2015-07-27T16:19:55Z</time>
      </trkpt>
      <trkpt lat="44.88873" lon="4.3324">
        <ele>951.465</ele>
        <time>2015-07-27T16:20:07Z</time>
      </trkpt>
      <trkpt lat="44.88892" lon="4.3331">
        <ele>951.127</ele>
        <time>2015-07-27T16:20:21Z</time>
      </trkpt>
      <trkpt lat="44.88915" lon="4.33357">
        <ele>950.389</ele>
        <time>2015-07-27T16:20:36Z</time>
      </trkpt>
      <trkpt lat="44.88919" lon="4.33362">
        <ele>950.284</ele>
        <time>2015-07-27T16:20:38Z</time>
      </trkpt>
      <trkpt lat="44.88938" lon="4.33379">
        <ele>949.56</ele>
        <time>2015-07-27T16:20:46Z</time>
      </trkpt>
      <trkpt lat="44.88939" lon="4.33381">
        <ele>948.643</ele>
        <time>2015-07-27T16:21:02Z</time>
      </trkpt>
      <trkpt lat="44.88953" lon="4.33408">
        <ele>950.218</ele>
        <time>2015-07-27T16:21:30Z</time>
      </trkpt>
      <trkpt lat="44.88958" lon="4.33417">
        <ele>951.457</ele>
        <time>2015-07-27T16:21:43Z</time>
      </trkpt>
      <trkpt lat="44.88963" lon="4.33424">
        <ele>951.763</ele>
        <time>2015-07-27T16:21:52Z</time>
      </trkpt>
      <trkpt lat="44.88997" lon="4.3347">
        <ele>952.675</ele>
        <time>2015-07-27T16:22:08Z</time>
      </trkpt>
      <trkpt lat="44.89035" lon="4.33546">
        <ele>952.984</ele>
        <time>2015-07-27T16:22:30Z</time>
      </trkpt>
      <trkpt lat="44.89055" lon="4.33606">
        <ele>954.763</ele>
        <time>2015-07-27T16:22:48Z</time>
      </trkpt>
      <trkpt lat="44.89057" lon="4.33661">
        <ele>955.434</ele>
        <time>2015-07-27T16:23:00Z</time>
      </trkpt>
      <trkpt lat="44.89062" lon="4.33697">
        <ele>954.44</ele>
        <time>2015-07-27T16:23:07Z</time>
      </trkpt>
      <trkpt lat="44.89065" lon="4.33736">
        <ele>954.792</ele>
        <time>2015-07-27T16:23:16Z</time>
      </trkpt>
      <trkpt lat="44.89082" lon="4.33774">
        <ele>957.032</ele>
        <time>2015-07-27T16:23:28Z</time>
      </trkpt>
      <trkpt lat="44.89101" lon="4.33814">
        <ele>957.41</ele>
        <time>2015-07-27T16:23:41Z</time>
      </trkpt>
      <trkpt lat="44.8912" lon="4.33849">
        <ele>958.285</ele>
        <time>2015-07-27T16:23:51Z</time>
      </trkpt>
      <trkpt lat="44.89138" lon="4.33882">
        <ele>959.696</ele>
        <time>2015-07-27T16:24:02Z</time>
      </trkpt>
      <trkpt lat="44.8914" lon="4.33885">
        <ele>959.68</ele>
        <time>2015-07-27T16:24:03Z</time>
      </trkpt>
      <trkpt lat="44.89157" lon="4.33911">
        <ele>961.609</ele>
        <time>2015-07-27T16:24:14Z</time>
      </trkpt>
      <trkpt lat="44.89162" lon="4.33916">
        <ele>961.73</ele>
        <time>2015-07-27T16:24:16Z</time>
      </trkpt>
      <trkpt lat="44.89193" lon="4.3395">
        <ele>962.156</ele>
        <time>2015-07-27T16:24:29Z</time>
      </trkpt>
      <trkpt lat="44.89228" lon="4.33978">
        <ele>963.287</ele>
        <time>2015-07-27T16:24:44Z</time>
      </trkpt>
      <trkpt lat="44.8923" lon="4.33986">
        <ele>964.69</ele>
        <time>2015-07-27T16:24:55Z</time>
      </trkpt>
      <trkpt lat="44.89232" lon="4.33988">
        <ele>965.052</ele>
        <time>2015-07-27T16:25:09Z</time>
      </trkpt>
      <trkpt lat="44.89236" lon="4.3399">
        <ele>965.12</ele>
        <time>2015-07-27T16:25:13Z</time>
      </trkpt>
      <trkpt lat="44.89256" lon="4.34001">
        <ele>966.822</ele>
        <time>2015-07-27T16:25:25Z</time>
      </trkpt>
      <trkpt lat="44.89272" lon="4.34021">
        <ele>970.062</ele>
        <time>2015-07-27T16:25:39Z</time>
      </trkpt>
      <trkpt lat="44.89286" lon="4.34033">
        <ele>972.146</ele>
        <time>2015-07-27T16:25:59Z</time>
      </trkpt>
      <trkpt lat="44.89295" lon="4.34043">
        <ele>974.464</ele>
        <time>2015-07-27T16:26:14Z</time>
      </trkpt>
      <trkpt lat="44.89306" lon="4.34053">
        <ele>976.551</ele>
        <time>2015-07-27T16:26:29Z</time>
      </trkpt>
      <trkpt lat="44.89316" lon="4.34065">
        <ele>978.052</ele>
        <time>2015-07-27T16:26:43Z</time>
      </trkpt>
      <trkpt lat="44.89329" lon="4.34078">
        <ele>979.672</ele>
        <time>2015-07-27T16:27:01Z</time>
      </trkpt>
      <trkpt lat="44.89333" lon="4.34078">
        <ele>978.921</ele>
        <time>2015-07-27T16:27:56Z</time>
      </trkpt>
      <trkpt lat="44.89331" lon="4.34076">
        <ele>979.954</ele>
        <time>2015-07-27T16:42:03Z</time>
      </trkpt>
      <trkpt lat="44.89336" lon="4.34084">
        <ele>980.353</ele>
        <time>2015-07-27T16:42:31Z</time>
      </trkpt>
      <trkpt lat="44.8934" lon="4.3409">
        <ele>981.062</ele>
        <time>2015-07-27T16:42:34Z</time>
      </trkpt>
      <trkpt lat="44.89363" lon="4.34112">
        <ele>983.273</ele>
        <time>2015-07-27T16:42:50Z</time>
      </trkpt>
      <trkpt lat="44.89366" lon="4.34117">
        <ele>984.61</ele>
        <time>2015-07-27T16:43:00Z</time>
      </trkpt>
      <trkpt lat="44.89377" lon="4.34121">
        <ele>985.524</ele>
        <time>2015-07-27T16:43:13Z</time>
      </trkpt>
      <trkpt lat="44.89386" lon="4.34129">
        <ele>986.14</ele>
        <time>2015-07-27T16:43:28Z</time>
      </trkpt>
      <trkpt lat="44.89391" lon="4.34133">
        <ele>985.926</ele>
        <time>2015-07-27T16:43:30Z</time>
      </trkpt>
      <trkpt lat="44.89413" lon="4.34164">
        <ele>984.645</ele>
        <time>2015-07-27T16:43:38Z</time>
      </trkpt>
      <trkpt lat="44.89433" lon="4.34206">
        <ele>982.14</ele>
        <time>2015-07-27T16:43:46Z</time>
      </trkpt>
      <trkpt lat="44.8944" lon="4.34223">
        <ele>980.8</ele>
        <time>2015-07-27T16:43:49Z</time>
      </trkpt>
      <trkpt lat="44.89448" lon="4.34251">
        <ele>979.936</ele>
        <time>2015-07-27T16:43:53Z</time>
      </trkpt>
      <trkpt lat="44.89451" lon="4.34317">
        <ele>976.432</ele>
        <time>2015-07-27T16:44:01Z</time>
      </trkpt>
      <trkpt lat="44.89452" lon="4.34328">
        <ele>976.432</ele>
        <time>2015-07-27T16:44:02Z</time>
      </trkpt>
      <trkpt lat="44.8945" lon="4.34365">
        <ele>975.793</ele>
        <time>2015-07-27T16:44:09Z</time>
      </trkpt>
      <trkpt lat="44.89453" lon="4.34395">
        <ele>974.229</ele>
        <time>2015-07-27T16:44:20Z</time>
      </trkpt>
      <trkpt lat="44.89458" lon="4.34409">
        <ele>972.458</ele>
        <time>2015-07-27T16:44:23Z</time>
      </trkpt>
      <trkpt lat="44.8946" lon="4.3442">
        <ele>971.219</ele>
        <time>2015-07-27T16:44:25Z</time>
      </trkpt>
      <trkpt lat="44.8946" lon="4.34441">
        <ele>968.008</ele>
        <time>2015-07-27T16:44:31Z</time>
      </trkpt>
      <trkpt lat="44.89461" lon="4.34451">
        <ele>966.629</ele>
        <time>2015-07-27T16:44:34Z</time>
      </trkpt>
      <trkpt lat="44.89461" lon="4.34461">
        <ele>965.334</ele>
        <time>2015-07-27T16:44:37Z</time>
      </trkpt>
      <trkpt lat="44.89466" lon="4.34506">
        <ele>962.296</ele>
        <time>2015-07-27T16:44:44Z</time>
      </trkpt>
      <trkpt lat="44.89468" lon="4.34516">
        <ele>961.44</ele>
        <time>2015-07-27T16:44:46Z</time>
      </trkpt>
      <trkpt lat="44.89473" lon="4.34544">
        <ele>958.562</ele>
        <time>2015-07-27T16:44:53Z</time>
      </trkpt>
      <trkpt lat="44.89478" lon="4.34561">
        <ele>955.804</ele>
        <time>2015-07-27T16:45:00Z</time>
      </trkpt>
      <trkpt lat="44.89482" lon="4.34582">
        <ele>953.299</ele>
        <time>2015-07-27T16:45:07Z</time>
      </trkpt>
      <trkpt lat="44.89487" lon="4.34595">
        <ele>952.585</ele>
        <time>2015-07-27T16:45:11Z</time>
      </trkpt>
      <trkpt lat="44.89488" lon="4.346">
        <ele>950.656</ele>
        <time>2015-07-27T16:45:13Z</time>
      </trkpt>
      <trkpt lat="44.89489" lon="4.34606">
        <ele>949.647</ele>
        <time>2015-07-27T16:45:27Z</time>
      </trkpt>
      <trkpt lat="44.89491" lon="4.34616">
        <ele>948.812</ele>
        <time>2015-07-27T16:45:42Z</time>
      </trkpt>
      <trkpt lat="44.89482" lon="4.34655">
        <ele>945.192</ele>
        <time>2015-07-27T16:45:52Z</time>
      </trkpt>
      <trkpt lat="44.89483" lon="4.34677">
        <ele>942.859</ele>
        <time>2015-07-27T16:45:57Z</time>
      </trkpt>
      <trkpt lat="44.89494" lon="4.34701">
        <ele>939.257</ele>
        <time>2015-07-27T16:46:04Z</time>
      </trkpt>
      <trkpt lat="44.89502" lon="4.34711">
        <ele>937.844</ele>
        <time>2015-07-27T16:46:08Z</time>
      </trkpt>
      <trkpt lat="44.89514" lon="4.34731">
        <ele>934.726</ele>
        <time>2015-07-27T16:46:15Z</time>
      </trkpt>
      <trkpt lat="44.89516" lon="4.34732">
        <ele>934.726</ele>
        <time>2015-07-27T16:46:16Z</time>
      </trkpt>
      <trkpt lat="44.89521" lon="4.34735">
        <ele>934.39</ele>
        <time>2015-07-27T16:46:18Z</time>
      </trkpt>
      <trkpt lat="44.89527" lon="4.34742">
        <ele>933.029</ele>
        <time>2015-07-27T16:46:21Z</time>
      </trkpt>
      <trkpt lat="44.89547" lon="4.34748">
        <ele>930.813</ele>
        <time>2015-07-27T16:46:26Z</time>
      </trkpt>
      <trkpt lat="44.89555" lon="4.34754">
        <ele>929.904</ele>
        <time>2015-07-27T16:46:28Z</time>
      </trkpt>
      <trkpt lat="44.89565" lon="4.34759">
        <ele>928.897</ele>
        <time>2015-07-27T16:46:30Z</time>
      </trkpt>
      <trkpt lat="44.89577" lon="4.34763">
        <ele>926.802</ele>
        <time>2015-07-27T16:46:32Z</time>
      </trkpt>
      <trkpt lat="44.89589" lon="4.34763">
        <ele>924.727</ele>
        <time>2015-07-27T16:46:34Z</time>
      </trkpt>
      <trkpt lat="44.89604" lon="4.34762">
        <ele>922.571</ele>
        <time>2015-07-27T16:46:37Z</time>
      </trkpt>
      <trkpt lat="44.89613" lon="4.34762">
        <ele>921.115</ele>
        <time>2015-07-27T16:46:39Z</time>
      </trkpt>
      <trkpt lat="44.89648" lon="4.34781">
        <ele>920.774</ele>
        <time>2015-07-27T16:46:51Z</time>
      </trkpt>
      <trkpt lat="44.89663" lon="4.34791">
        <ele>922.043</ele>
        <time>2015-07-27T16:46:58Z</time>
      </trkpt>
      <trkpt lat="44.8969" lon="4.34826">
        <ele>923.636</ele>
        <time>2015-07-27T16:47:13Z</time>
      </trkpt>
      <trkpt lat="44.89716" lon="4.34871">
        <ele>925.956</ele>
        <time>2015-07-27T16:47:28Z</time>
      </trkpt>
      <trkpt lat="44.89755" lon="4.34918">
        <ele>925.102</ele>
        <time>2015-07-27T16:47:44Z</time>
      </trkpt>
      <trkpt lat="44.89811" lon="4.34909">
        <ele>925.779</ele>
        <time>2015-07-27T16:47:58Z</time>
      </trkpt>
      <trkpt lat="44.89844" lon="4.34895">
        <ele>929.476</ele>
        <time>2015-07-27T16:48:11Z</time>
      </trkpt>
      <trkpt lat="44.89846" lon="4.34893">
        <ele>929.476</ele>
        <time>2015-07-27T16:48:12Z</time>
      </trkpt>
      <trkpt lat="44.89886" lon="4.34859">
        <ele>930.377</ele>
        <time>2015-07-27T16:48:27Z</time>
      </trkpt>
      <trkpt lat="44.89923" lon="4.34878">
        <ele>931.581</ele>
        <time>2015-07-27T16:48:36Z</time>
      </trkpt>
      <trkpt lat="44.89935" lon="4.34907">
        <ele>933.22</ele>
        <time>2015-07-27T16:48:44Z</time>
      </trkpt>
      <trkpt lat="44.89946" lon="4.34952">
        <ele>935.764</ele>
        <time>2015-07-27T16:48:58Z</time>
      </trkpt>
      <trkpt lat="44.89953" lon="4.34959">
        <ele>936.591</ele>
        <time>2015-07-27T16:49:10Z</time>
      </trkpt>
      <trkpt lat="44.89957" lon="4.34964">
        <ele>937.5</ele>
        <time>2015-07-27T16:49:40Z</time>
      </trkpt>
      <trkpt lat="44.89987" lon="4.34983">
        <ele>939.73</ele>
        <time>2015-07-27T16:49:54Z</time>
      </trkpt>
      <trkpt lat="44.9001" lon="4.35017">
        <ele>939.77</ele>
        <time>2015-07-27T16:50:04Z</time>
      </trkpt>
      <trkpt lat="44.9003" lon="4.3505">
        <ele>938.525</ele>
        <time>2015-07-27T16:50:10Z</time>
      </trkpt>
      <trkpt lat="44.90071" lon="4.35142">
        <ele>938.578</ele>
        <time>2015-07-27T16:50:24Z</time>
      </trkpt>
      <trkpt lat="44.90075" lon="4.35147">
        <ele>939.173</ele>
        <time>2015-07-27T16:50:25Z</time>
      </trkpt>
      <trkpt lat="44.90086" lon="4.35159">
        <ele>939.181</ele>
        <time>2015-07-27T16:50:28Z</time>
      </trkpt>
      <trkpt lat="44.90128" lon="4.35222">
        <ele>938.562</ele>
        <time>2015-07-27T16:50:39Z</time>
      </trkpt>
      <trkpt lat="44.90159" lon="4.35224">
        <ele>939.146</ele>
        <time>2015-07-27T16:50:45Z</time>
      </trkpt>
      <trkpt lat="44.90184" lon="4.35201">
        <ele>941.974</ele>
        <time>2015-07-27T16:50:53Z</time>
      </trkpt>
      <trkpt lat="44.90187" lon="4.352">
        <ele>941.974</ele>
        <time>2015-07-27T16:50:54Z</time>
      </trkpt>
      <trkpt lat="44.90192" lon="4.35197">
        <ele>941.149</ele>
        <time>2015-07-27T16:51:04Z</time>
      </trkpt>
      <trkpt lat="44.90211" lon="4.35182">
        <ele>942.685</ele>
        <time>2015-07-27T16:51:23Z</time>
      </trkpt>
      <trkpt lat="44.9021" lon="4.35186">
        <ele>942.211</ele>
        <time>2015-07-27T16:51:36Z</time>
      </trkpt>
      <trkpt lat="44.90213" lon="4.35181">
        <ele>942.243</ele>
        <time>2015-07-27T16:51:45Z</time>
      </trkpt>
      <trkpt lat="44.90239" lon="4.3516">
        <ele>942.116</ele>
        <time>2015-07-27T16:51:56Z</time>
      </trkpt>
      <trkpt lat="44.90291" lon="4.35155">
        <ele>941.218</ele>
        <time>2015-07-27T16:52:06Z</time>
      </trkpt>
      <trkpt lat="44.90314" lon="4.35157">
        <ele>941.366</ele>
        <time>2015-07-27T16:52:11Z</time>
      </trkpt>
      <trkpt lat="44.90338" lon="4.35173">
        <ele>941.371</ele>
        <time>2015-07-27T16:52:17Z</time>
      </trkpt>
      <trkpt lat="44.90381" lon="4.35217">
        <ele>941.408</ele>
        <time>2015-07-27T16:52:28Z</time>
      </trkpt>
      <trkpt lat="44.9042" lon="4.35257">
        <ele>941.022</ele>
        <time>2015-07-27T16:52:41Z</time>
      </trkpt>
      <trkpt lat="44.90443" lon="4.35277">
        <ele>941.765</ele>
        <time>2015-07-27T16:52:49Z</time>
      </trkpt>
      <trkpt lat="44.90458" lon="4.35292">
        <ele>941.102</ele>
        <time>2015-07-27T16:52:52Z</time>
      </trkpt>
      <trkpt lat="44.90477" lon="4.35305">
        <ele>942.204</ele>
        <time>2015-07-27T16:52:57Z</time>
      </trkpt>
      <trkpt lat="44.90479" lon="4.35306">
        <ele>941.63</ele>
        <time>2015-07-27T16:53:06Z</time>
      </trkpt>
      <trkpt lat="44.90481" lon="4.35308">
        <ele>941.913</ele>
        <time>2015-07-27T16:53:23Z</time>
      </trkpt>
      <trkpt lat="44.90487" lon="4.35313">
        <ele>942.441</ele>
        <time>2015-07-27T16:53:27Z</time>
      </trkpt>
      <trkpt lat="44.90522" lon="4.35324">
        <ele>942.108</ele>
        <time>2015-07-27T16:53:36Z</time>
      </trkpt>
      <trkpt lat="44.90535" lon="4.35335">
        <ele>941.202</ele>
        <time>2015-07-27T16:53:39Z</time>
      </trkpt>
      <trkpt lat="44.90563" lon="4.35389">
        <ele>943.157</ele>
        <time>2015-07-27T16:53:50Z</time>
      </trkpt>
      <trkpt lat="44.90565" lon="4.35395">
        <ele>942.761</ele>
        <time>2015-07-27T16:53:51Z</time>
      </trkpt>
      <trkpt lat="44.90584" lon="4.35489">
        <ele>942.65</ele>
        <time>2015-07-27T16:54:07Z</time>
      </trkpt>
      <trkpt lat="44.90585" lon="4.35495">
        <ele>942.637</ele>
        <time>2015-07-27T16:54:16Z</time>
      </trkpt>
      <trkpt lat="44.90586" lon="4.35498">
        <ele>942.888</ele>
        <time>2015-07-27T16:54:29Z</time>
      </trkpt>
      <trkpt lat="44.90584" lon="4.35496">
        <ele>942.729</ele>
        <time>2015-07-27T16:54:39Z</time>
      </trkpt>
      <trkpt lat="44.90586" lon="4.35499">
        <ele>942.365</ele>
        <time>2015-07-27T16:54:46Z</time>
      </trkpt>
      <trkpt lat="44.90585" lon="4.35536">
        <ele>942.605</ele>
        <time>2015-07-27T16:54:58Z</time>
      </trkpt>
      <trkpt lat="44.90584" lon="4.35577">
        <ele>942.983</ele>
        <time>2015-07-27T16:55:05Z</time>
      </trkpt>
      <trkpt lat="44.90577" lon="4.35606">
        <ele>943.657</ele>
        <time>2015-07-27T16:55:10Z</time>
      </trkpt>
      <trkpt lat="44.90566" lon="4.35633">
        <ele>944.777</ele>
        <time>2015-07-27T16:55:16Z</time>
      </trkpt>
      <trkpt lat="44.90577" lon="4.35671">
        <ele>945.078</ele>
        <time>2015-07-27T16:55:23Z</time>
      </trkpt>
      <trkpt lat="44.90614" lon="4.35729">
        <ele>944.772</ele>
        <time>2015-07-27T16:55:38Z</time>
      </trkpt>
      <trkpt lat="44.90622" lon="4.35747">
        <ele>944.608</ele>
        <time>2015-07-27T16:55:41Z</time>
      </trkpt>
      <trkpt lat="44.90634" lon="4.35845">
        <ele>941.9</ele>
        <time>2015-07-27T16:55:53Z</time>
      </trkpt>
      <trkpt lat="44.90645" lon="4.35931">
        <ele>943.34</ele>
        <time>2015-07-27T16:56:07Z</time>
      </trkpt>
      <trkpt lat="44.90654" lon="4.35977">
        <ele>943.506</ele>
        <time>2015-07-27T16:56:14Z</time>
      </trkpt>
      <trkpt lat="44.90683" lon="4.36059">
        <ele>943.969</ele>
        <time>2015-07-27T16:56:28Z</time>
      </trkpt>
      <trkpt lat="44.90688" lon="4.36071">
        <ele>944.204</ele>
        <time>2015-07-27T16:56:30Z</time>
      </trkpt>
      <trkpt lat="44.90704" lon="4.36089">
        <ele>944.373</ele>
        <time>2015-07-27T16:56:35Z</time>
      </trkpt>
      <trkpt lat="44.90734" lon="4.36112">
        <ele>943.467</ele>
        <time>2015-07-27T16:56:44Z</time>
      </trkpt>
      <trkpt lat="44.90738" lon="4.36119">
        <ele>942.185</ele>
        <time>2015-07-27T16:56:53Z</time>
      </trkpt>
      <trkpt lat="44.90739" lon="4.36151">
        <ele>942.56</ele>
        <time>2015-07-27T16:57:23Z</time>
      </trkpt>
      <trkpt lat="44.90747" lon="4.36184">
        <ele>941.495</ele>
        <time>2015-07-27T16:57:30Z</time>
      </trkpt>
      <trkpt lat="44.90751" lon="4.36196">
        <ele>941.144</ele>
        <time>2015-07-27T16:57:32Z</time>
      </trkpt>
      <trkpt lat="44.90759" lon="4.36214">
        <ele>939.881</ele>
        <time>2015-07-27T16:57:35Z</time>
      </trkpt>
      <trkpt lat="44.90771" lon="4.36228">
        <ele>938.021</ele>
        <time>2015-07-27T16:57:38Z</time>
      </trkpt>
      <trkpt lat="44.90793" lon="4.36263">
        <ele>935.97</ele>
        <time>2015-07-27T16:57:44Z</time>
      </trkpt>
      <trkpt lat="44.90803" lon="4.36282">
        <ele>935.78</ele>
        <time>2015-07-27T16:57:47Z</time>
      </trkpt>
      <trkpt lat="44.90816" lon="4.36302">
        <ele>934.462</ele>
        <time>2015-07-27T16:57:51Z</time>
      </trkpt>
      <trkpt lat="44.90843" lon="4.36343">
        <ele>931.801</ele>
        <time>2015-07-27T16:58:01Z</time>
      </trkpt>
      <trkpt lat="44.90849" lon="4.36351">
        <ele>931.423</ele>
        <time>2015-07-27T16:58:03Z</time>
      </trkpt>
      <trkpt lat="44.90858" lon="4.36365">
        <ele>930.696</ele>
        <time>2015-07-27T16:58:06Z</time>
      </trkpt>
      <trkpt lat="44.90871" lon="4.36385">
        <ele>931.056</ele>
        <time>2015-07-27T16:58:11Z</time>
      </trkpt>
      <trkpt lat="44.90917" lon="4.36443">
        <ele>932.625</ele>
        <time>2015-07-27T16:58:27Z</time>
      </trkpt>
      <trkpt lat="44.90921" lon="4.36458">
        <ele>932.707</ele>
        <time>2015-07-27T16:58:30Z</time>
      </trkpt>
      <trkpt lat="44.90966" lon="4.36532">
        <ele>933.785</ele>
        <time>2015-07-27T16:58:47Z</time>
      </trkpt>
      <trkpt lat="44.90969" lon="4.36536">
        <ele>934.108</ele>
        <time>2015-07-27T16:58:48Z</time>
      </trkpt>
      <trkpt lat="44.90998" lon="4.36606">
        <ele>933.783</ele>
        <time>2015-07-27T16:59:02Z</time>
      </trkpt>
      <trkpt lat="44.91007" lon="4.36628">
        <ele>934.258</ele>
        <time>2015-07-27T16:59:06Z</time>
      </trkpt>
      <trkpt lat="44.91013" lon="4.36645">
        <ele>934.546</ele>
        <time>2015-07-27T16:59:09Z</time>
      </trkpt>
      <trkpt lat="44.91047" lon="4.36736">
        <ele>936.578</ele>
        <time>2015-07-27T16:59:28Z</time>
      </trkpt>
      <trkpt lat="44.91052" lon="4.36809">
        <ele>937.654</ele>
        <time>2015-07-27T16:59:43Z</time>
      </trkpt>
      <trkpt lat="44.9107" lon="4.36911">
        <ele>940.412</ele>
        <time>2015-07-27T17:00:03Z</time>
      </trkpt>
      <trkpt lat="44.91103" lon="4.37015">
        <ele>942.616</ele>
        <time>2015-07-27T17:00:23Z</time>
      </trkpt>
      <trkpt lat="44.91159" lon="4.37094">
        <ele>942.605</ele>
        <time>2015-07-27T17:00:38Z</time>
      </trkpt>
      <trkpt lat="44.91175" lon="4.37112">
        <ele>942.225</ele>
        <time>2015-07-27T17:00:42Z</time>
      </trkpt>
      <trkpt lat="44.912" lon="4.37122">
        <ele>942.278</ele>
        <time>2015-07-27T17:00:47Z</time>
      </trkpt>
      <trkpt lat="44.91211" lon="4.37124">
        <ele>942.238</ele>
        <time>2015-07-27T17:00:49Z</time>
      </trkpt>
      <trkpt lat="44.91231" lon="4.37155">
        <ele>941.966</ele>
        <time>2015-07-27T17:00:55Z</time>
      </trkpt>
      <trkpt lat="44.91238" lon="4.37183">
        <ele>942.307</ele>
        <time>2015-07-27T17:00:59Z</time>
      </trkpt>
      <trkpt lat="44.91246" lon="4.37204">
        <ele>942.436</ele>
        <time>2015-07-27T17:01:02Z</time>
      </trkpt>
      <trkpt lat="44.91264" lon="4.37225">
        <ele>942.029</ele>
        <time>2015-07-27T17:01:06Z</time>
      </trkpt>
      <trkpt lat="44.91295" lon="4.37251">
        <ele>938.998</ele>
        <time>2015-07-27T17:01:12Z</time>
      </trkpt>
      <trkpt lat="44.91303" lon="4.37266">
        <ele>937.302</ele>
        <time>2015-07-27T17:01:15Z</time>
      </trkpt>
      <trkpt lat="44.91304" lon="4.37271">
        <ele>936.139</ele>
        <time>2015-07-27T17:01:16Z</time>
      </trkpt>
      <trkpt lat="44.91313" lon="4.37336">
        <ele>933.059</ele>
        <time>2015-07-27T17:01:25Z</time>
      </trkpt>
      <trkpt lat="44.91314" lon="4.37351">
        <ele>931.832</ele>
        <time>2015-07-27T17:01:27Z</time>
      </trkpt>
      <trkpt lat="44.91318" lon="4.3738">
        <ele>929.993</ele>
        <time>2015-07-27T17:01:31Z</time>
      </trkpt>
      <trkpt lat="44.9133" lon="4.37409">
        <ele>928.503</ele>
        <time>2015-07-27T17:01:35Z</time>
      </trkpt>
      <trkpt lat="44.91343" lon="4.37426">
        <ele>926.273</ele>
        <time>2015-07-27T17:01:38Z</time>
      </trkpt>
      <trkpt lat="44.91348" lon="4.37433">
        <ele>925.879</ele>
        <time>2015-07-27T17:01:39Z</time>
      </trkpt>
      <trkpt lat="44.9136" lon="4.37468">
        <ele>924.312</ele>
        <time>2015-07-27T17:01:43Z</time>
      </trkpt>
      <trkpt lat="44.91363" lon="4.37511">
        <ele>922.579</ele>
        <time>2015-07-27T17:01:47Z</time>
      </trkpt>
      <trkpt lat="44.91359" lon="4.3756">
        <ele>919.458</ele>
        <time>2015-07-27T17:01:52Z</time>
      </trkpt>
      <trkpt lat="44.91357" lon="4.37574">
        <ele>919.078</ele>
        <time>2015-07-27T17:01:54Z</time>
      </trkpt>
      <trkpt lat="44.91348" lon="4.37599">
        <ele>918.061</ele>
        <time>2015-07-27T17:01:58Z</time>
      </trkpt>
      <trkpt lat="44.91351" lon="4.37626">
        <ele>916.127</ele>
        <time>2015-07-27T17:02:03Z</time>
      </trkpt>
      <trkpt lat="44.91367" lon="4.3763">
        <ele>913.569</ele>
        <time>2015-07-27T17:02:07Z</time>
      </trkpt>
      <trkpt lat="44.91384" lon="4.37628">
        <ele>912.105</ele>
        <time>2015-07-27T17:02:10Z</time>
      </trkpt>
      <trkpt lat="44.9139" lon="4.37626">
        <ele>911.09</ele>
        <time>2015-07-27T17:02:11Z</time>
      </trkpt>
      <trkpt lat="44.91407" lon="4.37618">
        <ele>908.654</ele>
        <time>2015-07-27T17:02:15Z</time>
      </trkpt>
      <trkpt lat="44.91411" lon="4.37617">
        <ele>907.972</ele>
        <time>2015-07-27T17:02:16Z</time>
      </trkpt>
      <trkpt lat="44.91442" lon="4.37626">
        <ele>905.75</ele>
        <time>2015-07-27T17:02:22Z</time>
      </trkpt>
      <trkpt lat="44.91455" lon="4.37638">
        <ele>903.726</ele>
        <time>2015-07-27T17:02:26Z</time>
      </trkpt>
      <trkpt lat="44.9145" lon="4.37659">
        <ele>903.75</ele>
        <time>2015-07-27T17:02:30Z</time>
      </trkpt>
      <trkpt lat="44.91444" lon="4.37701">
        <ele>901.924</ele>
        <time>2015-07-27T17:02:35Z</time>
      </trkpt>
      <trkpt lat="44.9145" lon="4.37756">
        <ele>900.386</ele>
        <time>2015-07-27T17:02:42Z</time>
      </trkpt>
      <trkpt lat="44.91441" lon="4.37765">
        <ele>899.073</ele>
        <time>2015-07-27T17:02:45Z</time>
      </trkpt>
      <trkpt lat="44.91422" lon="4.37786">
        <ele>894.845</ele>
        <time>2015-07-27T17:02:51Z</time>
      </trkpt>
      <trkpt lat="44.91419" lon="4.37789">
        <ele>894.845</ele>
        <time>2015-07-27T17:02:52Z</time>
      </trkpt>
      <trkpt lat="44.91407" lon="4.37796">
        <ele>893.154</ele>
        <time>2015-07-27T17:02:56Z</time>
      </trkpt>
      <trkpt lat="44.91392" lon="4.37799">
        <ele>891.746</ele>
        <time>2015-07-27T17:03:05Z</time>
      </trkpt>
      <trkpt lat="44.91375" lon="4.37813">
        <ele>890.758</ele>
        <time>2015-07-27T17:03:09Z</time>
      </trkpt>
      <trkpt lat="44.91331" lon="4.37877">
        <ele>890.147</ele>
        <time>2015-07-27T17:03:23Z</time>
      </trkpt>
      <trkpt lat="44.91304" lon="4.37918">
        <ele>890.308</ele>
        <time>2015-07-27T17:03:33Z</time>
      </trkpt>
      <trkpt lat="44.91273" lon="4.38019">
        <ele>887.473</ele>
        <time>2015-07-27T17:03:49Z</time>
      </trkpt>
      <trkpt lat="44.91262" lon="4.38079">
        <ele>885.048</ele>
        <time>2015-07-27T17:03:57Z</time>
      </trkpt>
      <trkpt lat="44.91261" lon="4.38124">
        <ele>884.337</ele>
        <time>2015-07-27T17:04:03Z</time>
      </trkpt>
      <trkpt lat="44.91244" lon="4.38201">
        <ele>882.461</ele>
        <time>2015-07-27T17:04:13Z</time>
      </trkpt>
      <trkpt lat="44.91234" lon="4.38233">
        <ele>883.486</ele>
        <time>2015-07-27T17:04:18Z</time>
      </trkpt>
      <trkpt lat="44.91225" lon="4.38269">
        <ele>883.23</ele>
        <time>2015-07-27T17:04:24Z</time>
      </trkpt>
      <trkpt lat="44.91195" lon="4.38342">
        <ele>884.73</ele>
        <time>2015-07-27T17:04:38Z</time>
      </trkpt>
      <trkpt lat="44.91189" lon="4.38359">
        <ele>885.666</ele>
        <time>2015-07-27T17:04:42Z</time>
      </trkpt>
      <trkpt lat="44.91178" lon="4.38416">
        <ele>884.083</ele>
        <time>2015-07-27T17:04:52Z</time>
      </trkpt>
      <trkpt lat="44.91177" lon="4.38443">
        <ele>882.4</ele>
        <time>2015-07-27T17:05:01Z</time>
      </trkpt>
      <trkpt lat="44.9118" lon="4.38471">
        <ele>882.305</ele>
        <time>2015-07-27T17:05:45Z</time>
      </trkpt>
      <trkpt lat="44.91178" lon="4.38549">
        <ele>880.844</ele>
        <time>2015-07-27T17:05:59Z</time>
      </trkpt>
      <trkpt lat="44.91165" lon="4.38621">
        <ele>879.71</ele>
        <time>2015-07-27T17:06:16Z</time>
      </trkpt>
      <trkpt lat="44.91149" lon="4.38661">
        <ele>877.562</ele>
        <time>2015-07-27T17:06:25Z</time>
      </trkpt>
      <trkpt lat="44.91143" lon="4.38681">
        <ele>876.368</ele>
        <time>2015-07-27T17:06:29Z</time>
      </trkpt>
      <trkpt lat="44.91133" lon="4.38689">
        <ele>874.132</ele>
        <time>2015-07-27T17:06:40Z</time>
      </trkpt>
      <trkpt lat="44.9114" lon="4.38693">
        <ele>874.938</ele>
        <time>2015-07-27T17:07:17Z</time>
      </trkpt>
      <trkpt lat="44.91133" lon="4.38697">
        <ele>875.02</ele>
        <time>2015-07-27T17:07:23Z</time>
      </trkpt>
      <trkpt lat="44.91118" lon="4.38682">
        <ele>872.61</ele>
        <time>2015-07-27T17:07:30Z</time>
      </trkpt>
      <trkpt lat="44.91105" lon="4.38683">
        <ele>869.984</ele>
        <time>2015-07-27T17:07:37Z</time>
      </trkpt>
      <trkpt lat="44.91109" lon="4.38672">
        <ele>869.207</ele>
        <time>2015-07-27T17:07:47Z</time>
      </trkpt>
      <trkpt lat="44.91112" lon="4.38665">
        <ele>869.019</ele>
        <time>2015-07-27T17:07:49Z</time>
      </trkpt>
      <trkpt lat="44.91115" lon="4.38642">
        <ele>866.068</ele>
        <time>2015-07-27T17:07:58Z</time>
      </trkpt>
      <trkpt lat="44.91115" lon="4.38639">
        <ele>865.04</ele>
        <time>2015-07-27T17:08:00Z</time>
      </trkpt>
      <trkpt lat="44.91105" lon="4.38638">
        <ele>862.474</ele>
        <time>2015-07-27T17:08:07Z</time>
      </trkpt>
      <trkpt lat="44.91103" lon="4.3864">
        <ele>861.137</ele>
        <time>2015-07-27T17:08:08Z</time>
      </trkpt>
      <trkpt lat="44.91092" lon="4.38652">
        <ele>858.931</ele>
        <time>2015-07-27T17:08:20Z</time>
      </trkpt>
      <trkpt lat="44.91088" lon="4.38654">
        <ele>858.685</ele>
        <time>2015-07-27T17:08:24Z</time>
      </trkpt>
      <trkpt lat="44.91083" lon="4.38656">
        <ele>855.987</ele>
        <time>2015-07-27T17:08:35Z</time>
      </trkpt>
      <trkpt lat="44.9108" lon="4.38653">
        <ele>855.062</ele>
        <time>2015-07-27T17:08:38Z</time>
      </trkpt>
      <trkpt lat="44.91079" lon="4.3865">
        <ele>854.439</ele>
        <time>2015-07-27T17:08:40Z</time>
      </trkpt>
      <trkpt lat="44.91078" lon="4.38647">
        <ele>854.164</ele>
        <time>2015-07-27T17:08:43Z</time>
      </trkpt>
      <trkpt lat="44.91076" lon="4.38643">
        <ele>852.909</ele>
        <time>2015-07-27T17:08:46Z</time>
      </trkpt>
      <trkpt lat="44.91077" lon="4.38633">
        <ele>851.49</ele>
        <time>2015-07-27T17:09:02Z</time>
      </trkpt>
      <trkpt lat="44.91076" lon="4.3863">
        <ele>850.05</ele>
        <time>2015-07-27T17:09:05Z</time>
      </trkpt>
      <trkpt lat="44.91072" lon="4.38629">
        <ele>848.317</ele>
        <time>2015-07-27T17:09:10Z</time>
      </trkpt>
      <trkpt lat="44.91069" lon="4.38633">
        <ele>846.538</ele>
        <time>2015-07-27T17:09:14Z</time>
      </trkpt>
      <trkpt lat="44.91062" lon="4.38638">
        <ele>844.034</ele>
        <time>2015-07-27T17:09:29Z</time>
      </trkpt>
      <trkpt lat="44.9106" lon="4.38638">
        <ele>843.711</ele>
        <time>2015-07-27T17:09:31Z</time>
      </trkpt>
      <trkpt lat="44.91058" lon="4.38628">
        <ele>840.665</ele>
        <time>2015-07-27T17:09:40Z</time>
      </trkpt>
      <trkpt lat="44.91061" lon="4.38621">
        <ele>839.409</ele>
        <time>2015-07-27T17:09:50Z</time>
      </trkpt>
      <trkpt lat="44.91056" lon="4.3862">
        <ele>837.346</ele>
        <time>2015-07-27T17:09:56Z</time>
      </trkpt>
      <trkpt lat="44.91048" lon="4.38626">
        <ele>835.718</ele>
        <time>2015-07-27T17:10:08Z</time>
      </trkpt>
      <trkpt lat="44.91035" lon="4.38633">
        <ele>831.382</ele>
        <time>2015-07-27T17:10:32Z</time>
      </trkpt>
      <trkpt lat="44.91031" lon="4.3864">
        <ele>831.097</ele>
        <time>2015-07-27T17:11:07Z</time>
      </trkpt>
      <trkpt lat="44.91028" lon="4.38644">
        <ele>830.193</ele>
        <time>2015-07-27T17:11:16Z</time>
      </trkpt>
      <trkpt lat="44.91021" lon="4.38648">
        <ele>829.16</ele>
        <time>2015-07-27T17:11:19Z</time>
      </trkpt>
      <trkpt lat="44.91013" lon="4.38658">
        <ele>826.655</ele>
        <time>2015-07-27T17:11:29Z</time>
      </trkpt>
      <trkpt lat="44.91011" lon="4.3866">
        <ele>825.794</ele>
        <time>2015-07-27T17:11:33Z</time>
      </trkpt>
      <trkpt lat="44.91002" lon="4.38667">
        <ele>822.794</ele>
        <time>2015-07-27T17:11:47Z</time>
      </trkpt>
      <trkpt lat="44.90996" lon="4.38673">
        <ele>821.043</ele>
        <time>2015-07-27T17:11:57Z</time>
      </trkpt>
      <trkpt lat="44.90985" lon="4.3868">
        <ele>817.653</ele>
        <time>2015-07-27T17:12:11Z</time>
      </trkpt>
      <trkpt lat="44.90972" lon="4.38699">
        <ele>816.131</ele>
        <time>2015-07-27T17:12:28Z</time>
      </trkpt>
      <trkpt lat="44.9097" lon="4.38703">
        <ele>814.64</ele>
        <time>2015-07-27T17:12:33Z</time>
      </trkpt>
      <trkpt lat="44.90959" lon="4.38714">
        <ele>811.353</ele>
        <time>2015-07-27T17:12:48Z</time>
      </trkpt>
      <trkpt lat="44.90953" lon="4.38721">
        <ele>808.518</ele>
        <time>2015-07-27T17:13:01Z</time>
      </trkpt>
      <trkpt lat="44.90945" lon="4.38731">
        <ele>805.53</ele>
        <time>2015-07-27T17:13:16Z</time>
      </trkpt>
      <trkpt lat="44.9094" lon="4.38734">
        <ele>804.763</ele>
        <time>2015-07-27T17:13:27Z</time>
      </trkpt>
      <trkpt lat="44.90937" lon="4.38737">
        <ele>804.769</ele>
        <time>2015-07-27T17:13:31Z</time>
      </trkpt>
      <trkpt lat="44.90931" lon="4.38735">
        <ele>803.68</ele>
        <time>2015-07-27T17:13:40Z</time>
      </trkpt>
      <trkpt lat="44.90931" lon="4.38731">
        <ele>803.609</ele>
        <time>2015-07-27T17:13:42Z</time>
      </trkpt>
      <trkpt lat="44.90932" lon="4.38725">
        <ele>801.918</ele>
        <time>2015-07-27T17:13:46Z</time>
      </trkpt>
      <trkpt lat="44.90933" lon="4.38721">
        <ele>802.2</ele>
        <time>2015-07-27T17:13:48Z</time>
      </trkpt>
      <trkpt lat="44.90931" lon="4.38714">
        <ele>801.566</ele>
        <time>2015-07-27T17:13:53Z</time>
      </trkpt>
      <trkpt lat="44.90932" lon="4.38695">
        <ele>800.477</ele>
        <time>2015-07-27T17:14:04Z</time>
      </trkpt>
      <trkpt lat="44.9093" lon="4.38687">
        <ele>800.036</ele>
        <time>2015-07-27T17:14:12Z</time>
      </trkpt>
      <trkpt lat="44.90934" lon="4.38672">
        <ele>797.555</ele>
        <time>2015-07-27T17:14:22Z</time>
      </trkpt>
      <trkpt lat="44.90934" lon="4.38647">
        <ele>794.466</ele>
        <time>2015-07-27T17:14:35Z</time>
      </trkpt>
      <trkpt lat="44.90936" lon="4.38641">
        <ele>793.703</ele>
        <time>2015-07-27T17:14:39Z</time>
      </trkpt>
      <trkpt lat="44.90937" lon="4.38622">
        <ele>790.973</ele>
        <time>2015-07-27T17:14:51Z</time>
      </trkpt>
      <trkpt lat="44.90935" lon="4.38618">
        <ele>790.125</ele>
        <time>2015-07-27T17:14:59Z</time>
      </trkpt>
      <trkpt lat="44.90932" lon="4.38607">
        <ele>788.508</ele>
        <time>2015-07-27T17:15:06Z</time>
      </trkpt>
      <trkpt lat="44.90932" lon="4.38598">
        <ele>786.914</ele>
        <time>2015-07-27T17:15:13Z</time>
      </trkpt>
      <trkpt lat="44.90922" lon="4.38588">
        <ele>784.454</ele>
        <time>2015-07-27T17:15:27Z</time>
      </trkpt>
      <trkpt lat="44.90912" lon="4.38586">
        <ele>783.894</ele>
        <time>2015-07-27T17:15:37Z</time>
      </trkpt>
      <trkpt lat="44.90898" lon="4.38591">
        <ele>782.399</ele>
        <time>2015-07-27T17:15:51Z</time>
      </trkpt>
      <trkpt lat="44.90892" lon="4.38589">
        <ele>781.503</ele>
        <time>2015-07-27T17:15:57Z</time>
      </trkpt>
      <trkpt lat="44.90888" lon="4.38591">
        <ele>779.645</ele>
        <time>2015-07-27T17:16:04Z</time>
      </trkpt>
      <trkpt lat="44.9088" lon="4.38598">
        <ele>775.764</ele>
        <time>2015-07-27T17:16:17Z</time>
      </trkpt>
      <trkpt lat="44.90872" lon="4.38608">
        <ele>772.73</ele>
        <time>2015-07-27T17:16:32Z</time>
      </trkpt>
      <trkpt lat="44.90867" lon="4.38611">
        <ele>771.719</ele>
        <time>2015-07-27T17:16:39Z</time>
      </trkpt>
      <trkpt lat="44.90854" lon="4.38619">
        <ele>770.601</ele>
        <time>2015-07-27T17:16:52Z</time>
      </trkpt>
      <trkpt lat="44.90849" lon="4.38621">
        <ele>768.056</ele>
        <time>2015-07-27T17:16:55Z</time>
      </trkpt>
      <trkpt lat="44.90836" lon="4.38628">
        <ele>764.36</ele>
        <time>2015-07-27T17:17:01Z</time>
      </trkpt>
      <trkpt lat="44.90834" lon="4.38629">
        <ele>764.36</ele>
        <time>2015-07-27T17:17:02Z</time>
      </trkpt>
      <trkpt lat="44.90829" lon="4.38634">
        <ele>761.316</ele>
        <time>2015-07-27T17:17:07Z</time>
      </trkpt>
      <trkpt lat="44.9082" lon="4.38646">
        <ele>758.745</ele>
        <time>2015-07-27T17:17:20Z</time>
      </trkpt>
      <trkpt lat="44.90815" lon="4.38648">
        <ele>755.043</ele>
        <time>2015-07-27T17:17:33Z</time>
      </trkpt>
      <trkpt lat="44.90808" lon="4.38642">
        <ele>751.798</ele>
        <time>2015-07-27T17:17:45Z</time>
      </trkpt>
      <trkpt lat="44.90802" lon="4.38634">
        <ele>748.506</ele>
        <time>2015-07-27T17:17:54Z</time>
      </trkpt>
      <trkpt lat="44.90799" lon="4.3862">
        <ele>745.219</ele>
        <time>2015-07-27T17:18:05Z</time>
      </trkpt>
      <trkpt lat="44.90797" lon="4.38614">
        <ele>743.839</ele>
        <time>2015-07-27T17:18:09Z</time>
      </trkpt>
      <trkpt lat="44.90795" lon="4.38612">
        <ele>742.04</ele>
        <time>2015-07-27T17:18:13Z</time>
      </trkpt>
      <trkpt lat="44.90789" lon="4.38604">
        <ele>738.621</ele>
        <time>2015-07-27T17:18:22Z</time>
      </trkpt>
      <trkpt lat="44.90787" lon="4.38597">
        <ele>735.823</ele>
        <time>2015-07-27T17:18:29Z</time>
      </trkpt>
      <trkpt lat="44.90782" lon="4.38589">
        <ele>733.442</ele>
        <time>2015-07-27T17:18:35Z</time>
      </trkpt>
      <trkpt lat="44.90779" lon="4.38585">
        <ele>732.372</ele>
        <time>2015-07-27T17:18:39Z</time>
      </trkpt>
      <trkpt lat="44.90777" lon="4.38575">
        <ele>728.857</ele>
        <time>2015-07-27T17:18:47Z</time>
      </trkpt>
      <trkpt lat="44.90778" lon="4.38564">
        <ele>726.421</ele>
        <time>2015-07-27T17:18:53Z</time>
      </trkpt>
      <trkpt lat="44.90771" lon="4.38553">
        <ele>725.372</ele>
        <time>2015-07-27T17:19:02Z</time>
      </trkpt>
      <trkpt lat="44.90755" lon="4.3854">
        <ele>722.244</ele>
        <time>2015-07-27T17:19:07Z</time>
      </trkpt>
      <trkpt lat="44.90748" lon="4.38535">
        <ele>720.32</ele>
        <time>2015-07-27T17:19:09Z</time>
      </trkpt>
      <trkpt lat="44.90735" lon="4.38529">
        <ele>716.65</ele>
        <time>2015-07-27T17:19:13Z</time>
      </trkpt>
      <trkpt lat="44.90732" lon="4.38528">
        <ele>716.65</ele>
        <time>2015-07-27T17:19:14Z</time>
      </trkpt>
      <trkpt lat="44.90718" lon="4.38521">
        <ele>714.261</ele>
        <time>2015-07-27T17:19:18Z</time>
      </trkpt>
      <trkpt lat="44.9071" lon="4.3852">
        <ele>712.974</ele>
        <time>2015-07-27T17:19:20Z</time>
      </trkpt>
      <trkpt lat="44.907" lon="4.38522">
        <ele>710.401</ele>
        <time>2015-07-27T17:19:23Z</time>
      </trkpt>
      <trkpt lat="44.9069" lon="4.38527">
        <ele>708.559</ele>
        <time>2015-07-27T17:19:27Z</time>
      </trkpt>
      <trkpt lat="44.90684" lon="4.38525">
        <ele>706.757</ele>
        <time>2015-07-27T17:19:30Z</time>
      </trkpt>
      <trkpt lat="44.90692" lon="4.38515">
        <ele>705.793</ele>
        <time>2015-07-27T17:19:34Z</time>
      </trkpt>
      <trkpt lat="44.90709" lon="4.38507">
        <ele>704.146</ele>
        <time>2015-07-27T17:19:39Z</time>
      </trkpt>
      <trkpt lat="44.90709" lon="4.38494">
        <ele>703.01</ele>
        <time>2015-07-27T17:19:44Z</time>
      </trkpt>
      <trkpt lat="44.90703" lon="4.38494">
        <ele>701.612</ele>
        <time>2015-07-27T17:19:46Z</time>
      </trkpt>
      <trkpt lat="44.90697" lon="4.38494">
        <ele>700.22</ele>
        <time>2015-07-27T17:19:48Z</time>
      </trkpt>
      <trkpt lat="44.90687" lon="4.38492">
        <ele>698.558</ele>
        <time>2015-07-27T17:19:51Z</time>
      </trkpt>
      <trkpt lat="44.90682" lon="4.3849">
        <ele>696.478</ele>
        <time>2015-07-27T17:19:53Z</time>
      </trkpt>
      <trkpt lat="44.9067" lon="4.38488">
        <ele>694.069</ele>
        <time>2015-07-27T17:19:58Z</time>
      </trkpt>
      <trkpt lat="44.9065" lon="4.38486">
        <ele>690.919</ele>
        <time>2015-07-27T17:20:05Z</time>
      </trkpt>
      <trkpt lat="44.90645" lon="4.38486">
        <ele>690.174</ele>
        <time>2015-07-27T17:20:07Z</time>
      </trkpt>
      <trkpt lat="44.90629" lon="4.38483">
        <ele>686.958</ele>
        <time>2015-07-27T17:20:13Z</time>
      </trkpt>
      <trkpt lat="44.90626" lon="4.38484">
        <ele>686.958</ele>
        <time>2015-07-27T17:20:14Z</time>
      </trkpt>
      <trkpt lat="44.90621" lon="4.38486">
        <ele>685.671</ele>
        <time>2015-07-27T17:20:16Z</time>
      </trkpt>
      <trkpt lat="44.90617" lon="4.38488">
        <ele>684.44</ele>
        <time>2015-07-27T17:20:18Z</time>
      </trkpt>
      <trkpt lat="44.9061" lon="4.38492">
        <ele>682.355</ele>
        <time>2015-07-27T17:20:21Z</time>
      </trkpt>
      <trkpt lat="44.90605" lon="4.38494">
        <ele>680.757</ele>
        <time>2015-07-27T17:20:23Z</time>
      </trkpt>
      <trkpt lat="44.90593" lon="4.38501">
        <ele>678.503</ele>
        <time>2015-07-27T17:20:28Z</time>
      </trkpt>
      <trkpt lat="44.9057" lon="4.38515">
        <ele>674.222</ele>
        <time>2015-07-27T17:20:34Z</time>
      </trkpt>
      <trkpt lat="44.90566" lon="4.38518">
        <ele>674.222</ele>
        <time>2015-07-27T17:20:35Z</time>
      </trkpt>
      <trkpt lat="44.90549" lon="4.38534">
        <ele>672.172</ele>
        <time>2015-07-27T17:20:39Z</time>
      </trkpt>
      <trkpt lat="44.90542" lon="4.38542">
        <ele>669.207</ele>
        <time>2015-07-27T17:20:41Z</time>
      </trkpt>
      <trkpt lat="44.90518" lon="4.38561">
        <ele>666.15</ele>
        <time>2015-07-27T17:20:47Z</time>
      </trkpt>
      <trkpt lat="44.90501" lon="4.38572">
        <ele>662.112</ele>
        <time>2015-07-27T17:20:52Z</time>
      </trkpt>
      <trkpt lat="44.90498" lon="4.38572">
        <ele>662.112</ele>
        <time>2015-07-27T17:20:53Z</time>
      </trkpt>
      <trkpt lat="44.90481" lon="4.38579">
        <ele>658.088</ele>
        <time>2015-07-27T17:20:59Z</time>
      </trkpt>
      <trkpt lat="44.90478" lon="4.38581">
        <ele>658.088</ele>
        <time>2015-07-27T17:21:00Z</time>
      </trkpt>
      <trkpt lat="44.90463" lon="4.38584">
        <ele>655.388</ele>
        <time>2015-07-27T17:21:05Z</time>
      </trkpt>
      <trkpt lat="44.90455" lon="4.38587">
        <ele>654.045</ele>
        <time>2015-07-27T17:21:07Z</time>
      </trkpt>
      <trkpt lat="44.90438" lon="4.3859">
        <ele>650.727</ele>
        <time>2015-07-27T17:21:11Z</time>
      </trkpt>
      <trkpt lat="44.90413" lon="4.38605">
        <ele>649.387</ele>
        <time>2015-07-27T17:21:16Z</time>
      </trkpt>
      <trkpt lat="44.90405" lon="4.38613">
        <ele>647.847</ele>
        <time>2015-07-27T17:21:18Z</time>
      </trkpt>
      <trkpt lat="44.90392" lon="4.38637">
        <ele>646.507</ele>
        <time>2015-07-27T17:21:22Z</time>
      </trkpt>
      <trkpt lat="44.90387" lon="4.38651">
        <ele>645.606</ele>
        <time>2015-07-27T17:21:24Z</time>
      </trkpt>
      <trkpt lat="44.90373" lon="4.38668">
        <ele>643.812</ele>
        <time>2015-07-27T17:21:28Z</time>
      </trkpt>
      <trkpt lat="44.90368" lon="4.38673">
        <ele>642.274</ele>
        <time>2015-07-27T17:21:30Z</time>
      </trkpt>
      <trkpt lat="44.9037" lon="4.38661">
        <ele>642.543</ele>
        <time>2015-07-27T17:22:14Z</time>
      </trkpt>
      <trkpt lat="44.90369" lon="4.3865">
        <ele>639.658</ele>
        <time>2015-07-27T17:22:24Z</time>
      </trkpt>
      <trkpt lat="44.90368" lon="4.38647">
        <ele>640.062</ele>
        <time>2015-07-27T17:22:36Z</time>
      </trkpt>
      <trkpt lat="44.90372" lon="4.38607">
        <ele>638.916</ele>
        <time>2015-07-27T17:22:42Z</time>
      </trkpt>
      <trkpt lat="44.90386" lon="4.38568">
        <ele>634.722</ele>
        <time>2015-07-27T17:22:46Z</time>
      </trkpt>
      <trkpt lat="44.90393" lon="4.38539">
        <ele>632.917</ele>
        <time>2015-07-27T17:22:49Z</time>
      </trkpt>
      <trkpt lat="44.90392" lon="4.38524">
        <ele>630.862</ele>
        <time>2015-07-27T17:22:51Z</time>
      </trkpt>
      <trkpt lat="44.9039" lon="4.38516">
        <ele>629.609</ele>
        <time>2015-07-27T17:22:52Z</time>
      </trkpt>
      <trkpt lat="44.90388" lon="4.38501">
        <ele>628.978</ele>
        <time>2015-07-27T17:22:54Z</time>
      </trkpt>
      <trkpt lat="44.90388" lon="4.38497">
        <ele>627.197</ele>
        <time>2015-07-27T17:22:55Z</time>
      </trkpt>
      <trkpt lat="44.90387" lon="4.38492">
        <ele>625.778</ele>
        <time>2015-07-27T17:22:58Z</time>
      </trkpt>
      <trkpt lat="44.90385" lon="4.38492">
        <ele>625.453</ele>
        <time>2015-07-27T17:23:00Z</time>
      </trkpt>
      <trkpt lat="44.90386" lon="4.38499">
        <ele>625.751</ele>
        <time>2015-07-27T17:23:03Z</time>
      </trkpt>
      <trkpt lat="44.90375" lon="4.38517">
        <ele>626.285</ele>
        <time>2015-07-27T17:23:08Z</time>
      </trkpt>
      <trkpt lat="44.90339" lon="4.38593">
        <ele>626.911</ele>
        <time>2015-07-27T17:23:22Z</time>
      </trkpt>
      <trkpt lat="44.90319" lon="4.38624">
        <ele>625.622</ele>
        <time>2015-07-27T17:23:31Z</time>
      </trkpt>
      <trkpt lat="44.90309" lon="4.38622">
        <ele>624.734</ele>
        <time>2015-07-27T17:23:35Z</time>
      </trkpt>
      <trkpt lat="44.90305" lon="4.3862">
        <ele>622.811</ele>
        <time>2015-07-27T17:23:37Z</time>
      </trkpt>
      <trkpt lat="44.90301" lon="4.38612">
        <ele>621.022</ele>
        <time>2015-07-27T17:23:40Z</time>
      </trkpt>
      <trkpt lat="44.90298" lon="4.38611">
        <ele>619.788</ele>
        <time>2015-07-27T17:23:42Z</time>
      </trkpt>
      <trkpt lat="44.90294" lon="4.3862">
        <ele>618.675</ele>
        <time>2015-07-27T17:23:44Z</time>
      </trkpt>
      <trkpt lat="44.90267" lon="4.38683">
        <ele>619.04</ele>
        <time>2015-07-27T17:23:57Z</time>
      </trkpt>
      <trkpt lat="44.9025" lon="4.38689">
        <ele>618.163</ele>
        <time>2015-07-27T17:24:01Z</time>
      </trkpt>
      <trkpt lat="44.90226" lon="4.38694">
        <ele>615.161</ele>
        <time>2015-07-27T17:24:05Z</time>
      </trkpt>
      <trkpt lat="44.90217" lon="4.38709">
        <ele>611.079</ele>
        <time>2015-07-27T17:24:07Z</time>
      </trkpt>
      <trkpt lat="44.90216" lon="4.3872">
        <ele>611.079</ele>
        <time>2015-07-27T17:24:08Z</time>
      </trkpt>
      <trkpt lat="44.90211" lon="4.38741">
        <ele>609.998</ele>
        <time>2015-07-27T17:24:10Z</time>
      </trkpt>
      <trkpt lat="44.90188" lon="4.38748">
        <ele>607.295</ele>
        <time>2015-07-27T17:24:15Z</time>
      </trkpt>
      <trkpt lat="44.90181" lon="4.38736">
        <ele>607.287</ele>
        <time>2015-07-27T17:24:17Z</time>
      </trkpt>
      <trkpt lat="44.90163" lon="4.38711">
        <ele>606.169</ele>
        <time>2015-07-27T17:24:21Z</time>
      </trkpt>
      <trkpt lat="44.90123" lon="4.38664">
        <ele>603.934</ele>
        <time>2015-07-27T17:24:28Z</time>
      </trkpt>
      <trkpt lat="44.90112" lon="4.38638">
        <ele>601.902</ele>
        <time>2015-07-27T17:24:34Z</time>
      </trkpt>
      <trkpt lat="44.90109" lon="4.38634">
        <ele>601.289</ele>
        <time>2015-07-27T17:24:45Z</time>
      </trkpt>
      <trkpt lat="44.90107" lon="4.38622">
        <ele>601.368</ele>
        <time>2015-07-27T17:24:48Z</time>
      </trkpt>
      <trkpt lat="44.90091" lon="4.38605">
        <ele>601.011</ele>
        <time>2015-07-27T17:24:52Z</time>
      </trkpt>
      <trkpt lat="44.90062" lon="4.38583">
        <ele>599.378</ele>
        <time>2015-07-27T17:24:57Z</time>
      </trkpt>
      <trkpt lat="44.90035" lon="4.38574">
        <ele>598.67</ele>
        <time>2015-07-27T17:25:01Z</time>
      </trkpt>
      <trkpt lat="44.9002" lon="4.38581">
        <ele>597.307</ele>
        <time>2015-07-27T17:25:03Z</time>
      </trkpt>
      <trkpt lat="44.90004" lon="4.38576">
        <ele>595.576</ele>
        <time>2015-07-27T17:25:05Z</time>
      </trkpt>
      <trkpt lat="44.89991" lon="4.38561">
        <ele>594.083</ele>
        <time>2015-07-27T17:25:07Z</time>
      </trkpt>
      <trkpt lat="44.89984" lon="4.38553">
        <ele>594.083</ele>
        <time>2015-07-27T17:25:08Z</time>
      </trkpt>
      <trkpt lat="44.89967" lon="4.38543">
        <ele>592.498</ele>
        <time>2015-07-27T17:25:10Z</time>
      </trkpt>
      <trkpt lat="44.89948" lon="4.38542">
        <ele>590.976</ele>
        <time>2015-07-27T17:25:12Z</time>
      </trkpt>
      <trkpt lat="44.89926" lon="4.38544">
        <ele>588.31</ele>
        <time>2015-07-27T17:25:14Z</time>
      </trkpt>
      <trkpt lat="44.89891" lon="4.38536">
        <ele>586.97</ele>
        <time>2015-07-27T17:25:17Z</time>
      </trkpt>
      <trkpt lat="44.89838" lon="4.38507">
        <ele>583.567</ele>
        <time>2015-07-27T17:25:22Z</time>
      </trkpt>
      <trkpt lat="44.89781" lon="4.38493">
        <ele>581.054</ele>
        <time>2015-07-27T17:25:27Z</time>
      </trkpt>
      <trkpt lat="44.89759" lon="4.38498">
        <ele>579.22</ele>
        <time>2015-07-27T17:25:29Z</time>
      </trkpt>
      <trkpt lat="44.89739" lon="4.38511">
        <ele>577.4</ele>
        <time>2015-07-27T17:25:31Z</time>
      </trkpt>
      <trkpt lat="44.89718" lon="4.38528">
        <ele>575.51</ele>
        <time>2015-07-27T17:25:33Z</time>
      </trkpt>
      <trkpt lat="44.89695" lon="4.38544">
        <ele>572.052</ele>
        <time>2015-07-27T17:25:35Z</time>
      </trkpt>
      <trkpt lat="44.89684" lon="4.38553">
        <ele>572.052</ele>
        <time>2015-07-27T17:25:36Z</time>
      </trkpt>
      <trkpt lat="44.8966" lon="4.38571">
        <ele>569.829</ele>
        <time>2015-07-27T17:25:38Z</time>
      </trkpt>
      <trkpt lat="44.89638" lon="4.38589">
        <ele>566.997</ele>
        <time>2015-07-27T17:25:40Z</time>
      </trkpt>
      <trkpt lat="44.89615" lon="4.38603">
        <ele>564.088</ele>
        <time>2015-07-27T17:25:42Z</time>
      </trkpt>
      <trkpt lat="44.89576" lon="4.38645">
        <ele>561.028</ele>
        <time>2015-07-27T17:25:46Z</time>
      </trkpt>
      <trkpt lat="44.89567" lon="4.38654">
        <ele>561.028</ele>
        <time>2015-07-27T17:25:47Z</time>
      </trkpt>
      <trkpt lat="44.89546" lon="4.38663">
        <ele>559.778</ele>
        <time>2015-07-27T17:25:49Z</time>
      </trkpt>
      <trkpt lat="44.89513" lon="4.38677">
        <ele>557.796</ele>
        <time>2015-07-27T17:25:52Z</time>
      </trkpt>
      <trkpt lat="44.8949" lon="4.38685">
        <ele>556.068</ele>
        <time>2015-07-27T17:25:54Z</time>
      </trkpt>
      <trkpt lat="44.89438" lon="4.38689">
        <ele>551.352</ele>
        <time>2015-07-27T17:25:58Z</time>
      </trkpt>
      <trkpt lat="44.894" lon="4.38704">
        <ele>549.336</ele>
        <time>2015-07-27T17:26:01Z</time>
      </trkpt>
      <trkpt lat="44.89373" lon="4.38716">
        <ele>547.528</ele>
        <time>2015-07-27T17:26:03Z</time>
      </trkpt>
      <trkpt lat="44.89346" lon="4.38725">
        <ele>542.989</ele>
        <time>2015-07-27T17:26:05Z</time>
      </trkpt>
      <trkpt lat="44.89332" lon="4.3873">
        <ele>542.989</ele>
        <time>2015-07-27T17:26:06Z</time>
      </trkpt>
      <trkpt lat="44.89306" lon="4.38741">
        <ele>541.382</ele>
        <time>2015-07-27T17:26:08Z</time>
      </trkpt>
      <trkpt lat="44.89295" lon="4.38746">
        <ele>538.967</ele>
        <time>2015-07-27T17:26:09Z</time>
      </trkpt>
      <trkpt lat="44.89262" lon="4.38785">
        <ele>536.526</ele>
        <time>2015-07-27T17:26:13Z</time>
      </trkpt>
      <trkpt lat="44.8925" lon="4.38811">
        <ele>535.204</ele>
        <time>2015-07-27T17:26:15Z</time>
      </trkpt>
      <trkpt lat="44.89236" lon="4.38837">
        <ele>533.463</ele>
        <time>2015-07-27T17:26:17Z</time>
      </trkpt>
      <trkpt lat="44.89188" lon="4.38874">
        <ele>530.781</ele>
        <time>2015-07-27T17:26:22Z</time>
      </trkpt>
      <trkpt lat="44.89169" lon="4.38892">
        <ele>528.723</ele>
        <time>2015-07-27T17:26:24Z</time>
      </trkpt>
      <trkpt lat="44.89153" lon="4.38914">
        <ele>523.401</ele>
        <time>2015-07-27T17:26:26Z</time>
      </trkpt>
      <trkpt lat="44.89146" lon="4.38923">
        <ele>523.401</ele>
        <time>2015-07-27T17:26:27Z</time>
      </trkpt>
      <trkpt lat="44.8914" lon="4.38932">
        <ele>519.94</ele>
        <time>2015-07-27T17:26:28Z</time>
      </trkpt>
      <trkpt lat="44.89134" lon="4.38939">
        <ele>519.94</ele>
        <time>2015-07-27T17:26:29Z</time>
      </trkpt>
      <trkpt lat="44.89129" lon="4.38946">
        <ele>517.068</ele>
        <time>2015-07-27T17:26:30Z</time>
      </trkpt>
      <trkpt lat="44.89121" lon="4.38965">
        <ele>514.121</ele>
        <time>2015-07-27T17:26:33Z</time>
      </trkpt>
      <trkpt lat="44.89127" lon="4.38988">
        <ele>512.412</ele>
        <time>2015-07-27T17:26:36Z</time>
      </trkpt>
      <trkpt lat="44.89143" lon="4.39018">
        <ele>511.931</ele>
        <time>2015-07-27T17:26:40Z</time>
      </trkpt>
      <trkpt lat="44.89162" lon="4.3906">
        <ele>511.862</ele>
        <time>2015-07-27T17:26:45Z</time>
      </trkpt>
      <trkpt lat="44.89182" lon="4.39091">
        <ele>512.288</ele>
        <time>2015-07-27T17:26:49Z</time>
      </trkpt>
      <trkpt lat="44.89192" lon="4.3914">
        <ele>512.055</ele>
        <time>2015-07-27T17:26:54Z</time>
      </trkpt>
      <trkpt lat="44.89192" lon="4.39159">
        <ele>511.73</ele>
        <time>2015-07-27T17:26:56Z</time>
      </trkpt>
      <trkpt lat="44.89193" lon="4.39174">
        <ele>510.649</ele>
        <time>2015-07-27T17:26:58Z</time>
      </trkpt>
      <trkpt lat="44.89182" lon="4.39183">
        <ele>510.145</ele>
        <time>2015-07-27T17:27:02Z</time>
      </trkpt>
      <trkpt lat="44.89142" lon="4.39183">
        <ele>509.733</ele>
        <time>2015-07-27T17:27:08Z</time>
      </trkpt>
      <trkpt lat="44.89113" lon="4.39174">
        <ele>510.76</ele>
        <time>2015-07-27T17:27:13Z</time>
      </trkpt>
      <trkpt lat="44.8909" lon="4.3915">
        <ele>513.564</ele>
        <time>2015-07-27T17:27:21Z</time>
      </trkpt>
      <trkpt lat="44.89076" lon="4.39117">
        <ele>516.436</ele>
        <time>2015-07-27T17:27:30Z</time>
      </trkpt>
      <trkpt lat="44.89064" lon="4.39103">
        <ele>517.947</ele>
        <time>2015-07-27T17:27:36Z</time>
      </trkpt>
      <trkpt lat="44.89062" lon="4.39096">
        <ele>518.645</ele>
        <time>2015-07-27T17:27:39Z</time>
      </trkpt>
      <trkpt lat="44.89058" lon="4.39087">
        <ele>520.045</ele>
        <time>2015-07-27T17:27:43Z</time>
      </trkpt>
      <trkpt lat="44.89038" lon="4.39066">
        <ele>522.646</ele>
        <time>2015-07-27T17:27:54Z</time>
      </trkpt>
      <trkpt lat="44.8902" lon="4.39043">
        <ele>524.228</ele>
        <time>2015-07-27T17:28:05Z</time>
      </trkpt>
      <trkpt lat="44.89" lon="4.3902">
        <ele>526.635</ele>
        <time>2015-07-27T17:28:16Z</time>
      </trkpt>
      <trkpt lat="44.8899" lon="4.39001">
        <ele>527.592</ele>
        <time>2015-07-27T17:28:23Z</time>
      </trkpt>
      <trkpt lat="44.88963" lon="4.38944">
        <ele>530.953</ele>
        <time>2015-07-27T17:28:44Z</time>
      </trkpt>
      <trkpt lat="44.88959" lon="4.38941">
        <ele>531.262</ele>
        <time>2015-07-27T17:28:46Z</time>
      </trkpt>
      <trkpt lat="44.88958" lon="4.38952">
        <ele>532.116</ele>
        <time>2015-07-27T17:28:51Z</time>
      </trkpt>
      <trkpt lat="44.88981" lon="4.38987">
        <ele>533.566</ele>
        <time>2015-07-27T17:29:05Z</time>
      </trkpt>
      <trkpt lat="44.89" lon="4.39035">
        <ele>536.647</ele>
        <time>2015-07-27T17:29:22Z</time>
      </trkpt>
      <trkpt lat="44.89013" lon="4.39064">
        <ele>539.358</ele>
        <time>2015-07-27T17:29:35Z</time>
      </trkpt>
      <trkpt lat="44.89016" lon="4.39073">
        <ele>540.286</ele>
        <time>2015-07-27T17:29:41Z</time>
      </trkpt>
      <trkpt lat="44.89019" lon="4.39087">
        <ele>541.454</ele>
        <time>2015-07-27T17:29:46Z</time>
      </trkpt>
      <trkpt lat="44.89029" lon="4.39119">
        <ele>543.063</ele>
        <time>2015-07-27T17:29:57Z</time>
      </trkpt>
      <trkpt lat="44.89041" lon="4.39143">
        <ele>545.103</ele>
        <time>2015-07-27T17:30:06Z</time>
      </trkpt>
      <trkpt lat="44.89045" lon="4.39157">
        <ele>545.803</ele>
        <time>2015-07-27T17:30:11Z</time>
      </trkpt>
      <trkpt lat="44.89054" lon="4.39189">
        <ele>548.279</ele>
        <time>2015-07-27T17:30:24Z</time>
      </trkpt>
      <trkpt lat="44.89062" lon="4.39208">
        <ele>549.637</ele>
        <time>2015-07-27T17:30:32Z</time>
      </trkpt>
      <trkpt lat="44.89064" lon="4.39221">
        <ele>550.519</ele>
        <time>2015-07-27T17:30:37Z</time>
      </trkpt>
      <trkpt lat="44.89082" lon="4.39248">
        <ele>552.705</ele>
        <time>2015-07-27T17:30:50Z</time>
      </trkpt>
      <trkpt lat="44.89101" lon="4.39271">
        <ele>555.323</ele>
        <time>2015-07-27T17:31:04Z</time>
      </trkpt>
      <trkpt lat="44.89105" lon="4.39284">
        <ele>556.063</ele>
        <time>2015-07-27T17:31:09Z</time>
      </trkpt>
      <trkpt lat="44.89105" lon="4.39318">
        <ele>558.808</ele>
        <time>2015-07-27T17:31:24Z</time>
      </trkpt>
      <trkpt lat="44.89102" lon="4.39327">
        <ele>559.4</ele>
        <time>2015-07-27T17:31:28Z</time>
      </trkpt>
      <trkpt lat="44.89089" lon="4.39346">
        <ele>561.295</ele>
        <time>2015-07-27T17:31:39Z</time>
      </trkpt>
      <trkpt lat="44.89069" lon="4.39345">
        <ele>563.171</ele>
        <time>2015-07-27T17:31:48Z</time>
      </trkpt>
      <trkpt lat="44.89043" lon="4.39327">
        <ele>565.834</ele>
        <time>2015-07-27T17:32:03Z</time>
      </trkpt>
      <trkpt lat="44.89023" lon="4.39295">
        <ele>568.846</ele>
        <time>2015-07-27T17:32:20Z</time>
      </trkpt>
      <trkpt lat="44.89007" lon="4.39279">
        <ele>570.548</ele>
        <time>2015-07-27T17:32:32Z</time>
      </trkpt>
      <trkpt lat="44.89007" lon="4.39277">
        <ele>571.077</ele>
        <time>2015-07-27T17:33:52Z</time>
      </trkpt>
      <trkpt lat="44.88993" lon="4.39252">
        <ele>572.747</ele>
        <time>2015-07-27T17:34:06Z</time>
      </trkpt>
      <trkpt lat="44.88982" lon="4.39217">
        <ele>576.052</ele>
        <time>2015-07-27T17:34:20Z</time>
      </trkpt>
      <trkpt lat="44.8898" lon="4.39206">
        <ele>576.876</ele>
        <time>2015-07-27T17:34:24Z</time>
      </trkpt>
      <trkpt lat="44.88959" lon="4.39174">
        <ele>579.944</ele>
        <time>2015-07-27T17:34:41Z</time>
      </trkpt>
      <trkpt lat="44.88946" lon="4.3916">
        <ele>581.437</ele>
        <time>2015-07-27T17:34:51Z</time>
      </trkpt>
      <trkpt lat="44.88941" lon="4.3915">
        <ele>582.103</ele>
        <time>2015-07-27T17:34:56Z</time>
      </trkpt>
      <trkpt lat="44.88934" lon="4.39123">
        <ele>584.325</ele>
        <time>2015-07-27T17:35:07Z</time>
      </trkpt>
      <trkpt lat="44.88928" lon="4.39119">
        <ele>584.811</ele>
        <time>2015-07-27T17:35:10Z</time>
      </trkpt>
      <trkpt lat="44.88923" lon="4.39073">
        <ele>587.385</ele>
        <time>2015-07-27T17:35:29Z</time>
      </trkpt>
      <trkpt lat="44.88921" lon="4.39068">
        <ele>588.339</ele>
        <time>2015-07-27T17:35:32Z</time>
      </trkpt>
      <trkpt lat="44.88918" lon="4.39058">
        <ele>589.095</ele>
        <time>2015-07-27T17:35:36Z</time>
      </trkpt>
      <trkpt lat="44.88891" lon="4.39022">
        <ele>592.099</ele>
        <time>2015-07-27T17:35:56Z</time>
      </trkpt>
      <trkpt lat="44.88863" lon="4.3899">
        <ele>595.463</ele>
        <time>2015-07-27T17:36:16Z</time>
      </trkpt>
      <trkpt lat="44.88842" lon="4.38961">
        <ele>598.684</ele>
        <time>2015-07-27T17:36:34Z</time>
      </trkpt>
      <trkpt lat="44.88808" lon="4.38937">
        <ele>601.659</ele>
        <time>2015-07-27T17:36:55Z</time>
      </trkpt>
      <trkpt lat="44.88778" lon="4.38919">
        <ele>605.041</ele>
        <time>2015-07-27T17:37:14Z</time>
      </trkpt>
      <trkpt lat="44.88769" lon="4.38903">
        <ele>606.552</ele>
        <time>2015-07-27T17:37:22Z</time>
      </trkpt>
      <trkpt lat="44.88769" lon="4.38885">
        <ele>608.185</ele>
        <time>2015-07-27T17:37:29Z</time>
      </trkpt>
      <trkpt lat="44.88763" lon="4.38888">
        <ele>608.991</ele>
        <time>2015-07-27T17:37:34Z</time>
      </trkpt>
      <trkpt lat="44.88755" lon="4.38887">
        <ele>610.053</ele>
        <time>2015-07-27T17:37:40Z</time>
      </trkpt>
      <trkpt lat="44.8875" lon="4.3888">
        <ele>610.88</ele>
        <time>2015-07-27T17:37:44Z</time>
      </trkpt>
      <trkpt lat="44.88712" lon="4.38854">
        <ele>612.976</ele>
        <time>2015-07-27T17:38:05Z</time>
      </trkpt>
      <trkpt lat="44.8871" lon="4.38851">
        <ele>612.976</ele>
        <time>2015-07-27T17:38:06Z</time>
      </trkpt>
      <trkpt lat="44.88686" lon="4.388">
        <ele>615.565</ele>
        <time>2015-07-27T17:38:29Z</time>
      </trkpt>
      <trkpt lat="44.88663" lon="4.38756">
        <ele>618.176</ele>
        <time>2015-07-27T17:38:49Z</time>
      </trkpt>
      <trkpt lat="44.88658" lon="4.38739">
        <ele>619.431</ele>
        <time>2015-07-27T17:38:57Z</time>
      </trkpt>
      <trkpt lat="44.8864" lon="4.38708">
        <ele>620.332</ele>
        <time>2015-07-27T17:39:09Z</time>
      </trkpt>
      <trkpt lat="44.88633" lon="4.38693">
        <ele>620.755</ele>
        <time>2015-07-27T17:39:13Z</time>
      </trkpt>
      <trkpt lat="44.88618" lon="4.38701">
        <ele>620.67</ele>
        <time>2015-07-27T17:39:18Z</time>
      </trkpt>
      <trkpt lat="44.88573" lon="4.38755">
        <ele>621.791</ele>
        <time>2015-07-27T17:39:33Z</time>
      </trkpt>
      <trkpt lat="44.88564" lon="4.38754">
        <ele>622.705</ele>
        <time>2015-07-27T17:39:37Z</time>
      </trkpt>
      <trkpt lat="44.88548" lon="4.38737">
        <ele>622.747</ele>
        <time>2015-07-27T17:39:42Z</time>
      </trkpt>
      <trkpt lat="44.88517" lon="4.38719">
        <ele>623.059</ele>
        <time>2015-07-27T17:39:49Z</time>
      </trkpt>
      <trkpt lat="44.88494" lon="4.38686">
        <ele>623.783</ele>
        <time>2015-07-27T17:39:56Z</time>
      </trkpt>
      <trkpt lat="44.88479" lon="4.38671">
        <ele>624.24</ele>
        <time>2015-07-27T17:40:00Z</time>
      </trkpt>
      <trkpt lat="44.88438" lon="4.38642">
        <ele>624.126</ele>
        <time>2015-07-27T17:40:09Z</time>
      </trkpt>
      <trkpt lat="44.88413" lon="4.38617">
        <ele>624.594</ele>
        <time>2015-07-27T17:40:16Z</time>
      </trkpt>
      <trkpt lat="44.88408" lon="4.38586">
        <ele>623.923</ele>
        <time>2015-07-27T17:40:21Z</time>
      </trkpt>
      <trkpt lat="44.8841" lon="4.38561">
        <ele>623.297</ele>
        <time>2015-07-27T17:40:25Z</time>
      </trkpt>
      <trkpt lat="44.88395" lon="4.38519">
        <ele>621.804</ele>
        <time>2015-07-27T17:40:31Z</time>
      </trkpt>
      <trkpt lat="44.88355" lon="4.38479">
        <ele>621.143</ele>
        <time>2015-07-27T17:40:39Z</time>
      </trkpt>
      <trkpt lat="44.88338" lon="4.38466">
        <ele>620.533</ele>
        <time>2015-07-27T17:40:42Z</time>
      </trkpt>
      <trkpt lat="44.88323" lon="4.38454">
        <ele>619.827</ele>
        <time>2015-07-27T17:40:45Z</time>
      </trkpt>
      <trkpt lat="44.88328" lon="4.38422">
        <ele>618.485</ele>
        <time>2015-07-27T17:40:51Z</time>
      </trkpt>
      <trkpt lat="44.88332" lon="4.38422">
        <ele>618.575</ele>
        <time>2015-07-27T17:40:52Z</time>
      </trkpt>
      <trkpt lat="44.88351" lon="4.38424">
        <ele>618.57</ele>
        <time>2015-07-27T17:40:56Z</time>
      </trkpt>
      <trkpt lat="44.88401" lon="4.38419">
        <ele>618.612</ele>
        <time>2015-07-27T17:41:05Z</time>
      </trkpt>
      <trkpt lat="44.88464" lon="4.38396">
        <ele>615.806</ele>
        <time>2015-07-27T17:41:15Z</time>
      </trkpt>
      <trkpt lat="44.8848" lon="4.38348">
        <ele>614.699</ele>
        <time>2015-07-27T17:41:21Z</time>
      </trkpt>
      <trkpt lat="44.88445" lon="4.38226">
        <ele>615.837</ele>
        <time>2015-07-27T17:41:38Z</time>
      </trkpt>
      <trkpt lat="44.88436" lon="4.38206">
        <ele>615.756</ele>
        <time>2015-07-27T17:41:41Z</time>
      </trkpt>
      <trkpt lat="44.88415" lon="4.38171">
        <ele>616.266</ele>
        <time>2015-07-27T17:41:47Z</time>
      </trkpt>
      <trkpt lat="44.88407" lon="4.38121">
        <ele>617.653</ele>
        <time>2015-07-27T17:41:55Z</time>
      </trkpt>
      <trkpt lat="44.88431" lon="4.38047">
        <ele>620.995</ele>
        <time>2015-07-27T17:42:09Z</time>
      </trkpt>
      <trkpt lat="44.88415" lon="4.38007">
        <ele>622.34</ele>
        <time>2015-07-27T17:42:19Z</time>
      </trkpt>
      <trkpt lat="44.88406" lon="4.37964">
        <ele>623.867</ele>
        <time>2015-07-27T17:42:30Z</time>
      </trkpt>
      <trkpt lat="44.88402" lon="4.37934">
        <ele>627.271</ele>
        <time>2015-07-27T17:42:42Z</time>
      </trkpt>
      <trkpt lat="44.88402" lon="4.37931">
        <ele>628.034</ele>
        <time>2015-07-27T17:42:43Z</time>
      </trkpt>
      <trkpt lat="44.88418" lon="4.37884">
        <ele>630.336</ele>
        <time>2015-07-27T17:43:00Z</time>
      </trkpt>
      <trkpt lat="44.88433" lon="4.3784">
        <ele>633.375</ele>
        <time>2015-07-27T17:43:15Z</time>
      </trkpt>
      <trkpt lat="44.88432" lon="4.37804">
        <ele>636.799</ele>
        <time>2015-07-27T17:43:29Z</time>
      </trkpt>
      <trkpt lat="44.88423" lon="4.37762">
        <ele>640.403</ele>
        <time>2015-07-27T17:43:47Z</time>
      </trkpt>
      <trkpt lat="44.88415" lon="4.37736">
        <ele>641.915</ele>
        <time>2015-07-27T17:43:59Z</time>
      </trkpt>
      <trkpt lat="44.88422" lon="4.37727">
        <ele>641.835</ele>
        <time>2015-07-27T17:44:03Z</time>
      </trkpt>
      <trkpt lat="44.8847" lon="4.3767">
        <ele>641.516</ele>
        <time>2015-07-27T17:44:19Z</time>
      </trkpt>
      <trkpt lat="44.88495" lon="4.37635">
        <ele>641.994</ele>
        <time>2015-07-27T17:44:28Z</time>
      </trkpt>
      <trkpt lat="44.88511" lon="4.37638">
        <ele>641.949</ele>
        <time>2015-07-27T17:44:32Z</time>
      </trkpt>
      <trkpt lat="44.8852" lon="4.37645">
        <ele>641.714</ele>
        <time>2015-07-27T17:44:34Z</time>
      </trkpt>
    </trkseg>
  </trk>
</gpx>